<?xml version="1.0" encoding="UTF-8"?>
<gpx xmlns:xsi="http://www.w3.org/2001/XMLSchema-instance" xmlns="http://www.topografix.com/GPX/1/1" xsi:schemaLocation="http://www.topografix.com/GPX/1/1 http://www.topografix.com/GPX/1/1/gpx.xsd http://www.garmin.com/xmlschemas/GpxExtensions/v3 http://www.garmin.com/xmlschemas/GpxExtensionsv3.xsd http://www.garmin.com/xmlschemas/TrackPointExtension/v1 http://www.garmin.com/xmlschemas/TrackPointExtensionv1.xsd http://www.topografix.com/GPX/gpx_style/0/2 http://www.topografix.com/GPX/gpx_style/0/2/gpx_style.xsd" xmlns:gpxtpx="http://www.garmin.com/xmlschemas/TrackPointExtension/v1" xmlns:gpxx="http://www.garmin.com/xmlschemas/GpxExtensions/v3" xmlns:gpx_style="http://www.topografix.com/GPX/gpx_style/0/2" version="1.1" creator="http://thydzik.com">
<metadata>
    <name>2 ibilbidea_DUKEAREN BASOBALTZA_20230222</name>
    <author>
        <name>gpx.studio</name>
        <link href="https://gpx.studio"></link>
    </author>
</metadata>
<trk>
    <name>2 ibilbidea_DUKEAREN BASOBALTZA_20230222</name>
    <type>Cycling</type>
    <trkseg>
    <trkpt lat="43.1686287480276" lon="-2.641631138925777">
        <ele>110.9</ele>
        <time>2023-02-22T10:25:38.000Z</time>
    </trkpt>
    <trkpt lat="43.16851254789488" lon="-2.641647947742686">
        <ele>110.7</ele>
        <time>2023-02-22T10:25:53.144Z</time>
    </trkpt>
    <trkpt lat="43.16838564541341" lon="-2.641666856212725">
        <ele>110.5</ele>
        <time>2023-02-22T10:26:09.793Z</time>
    </trkpt>
    <trkpt lat="43.16824039665025" lon="-2.641694155901345">
        <ele>110.3</ele>
        <time>2023-02-22T10:26:29.735Z</time>
    </trkpt>
    <trkpt lat="43.16813642798119" lon="-2.641706767562541">
        <ele>110.3</ele>
        <time>2023-02-22T10:26:44.024Z</time>
    </trkpt>
    <trkpt lat="43.16796059890965" lon="-2.64172988396811">
        <ele>111.5</ele>
        <time>2023-02-22T10:27:08.054Z</time>
    </trkpt>
    <trkpt lat="43.1677694816488" lon="-2.641763486776556">
        <ele>112.9</ele>
        <time>2023-02-22T10:27:34.097Z</time>
    </trkpt>
    <trkpt lat="43.16763034855246" lon="-2.641790783708371">
        <ele>113.6</ele>
        <time>2023-02-22T10:27:52.948Z</time>
    </trkpt>
    <trkpt lat="43.16751567625101" lon="-2.641805496808099">
        <ele>113.8</ele>
        <time>2023-02-22T10:28:08.360Z</time>
    </trkpt>
    <trkpt lat="43.16744382070812" lon="-2.641845350285867">
        <ele>114.1</ele>
        <time>2023-02-22T10:28:19.427Z</time>
    </trkpt>
    <trkpt lat="43.16742548750597" lon="-2.641931306363963">
        <ele>114.4</ele>
        <time>2023-02-22T10:28:28.563Z</time>
    </trkpt>
    <trkpt lat="43.16743930000951" lon="-2.642237368497939">
        <ele>115.4</ele>
        <time>2023-02-22T10:28:59.879Z</time>
    </trkpt>
    <trkpt lat="43.1674699258296" lon="-2.642516172640682">
        <ele>116.2</ele>
        <time>2023-02-22T10:29:28.422Z</time>
    </trkpt>
    <trkpt lat="43.16748678084103" lon="-2.642738379850704">
        <ele>116.8</ele>
        <time>2023-02-22T10:29:50.899Z</time>
    </trkpt>
    <trkpt lat="43.16752197678323" lon="-2.642920751144611">
        <ele>117.4</ele>
        <time>2023-02-22T10:30:09.696Z</time>
    </trkpt>
    <trkpt lat="43.16756633901408" lon="-2.643057000384531">
        <ele>117.6</ele>
        <time>2023-02-22T10:30:24.833Z</time>
    </trkpt>
    <trkpt lat="43.16762669383672" lon="-2.643203725725918">
        <ele>117.4</ele>
        <time>2023-02-22T10:30:41.720Z</time>
    </trkpt>
    <trkpt lat="43.16766492999629" lon="-2.643277087077012">
        <ele>117.4</ele>
        <time>2023-02-22T10:30:50.611Z</time>
    </trkpt>
    <trkpt lat="43.16767" lon="-2.6434">
        <ele>117.5</ele>
        <time>2023-02-22T10:31:02.630Z</time>
    </trkpt>
    <trkpt lat="43.1676" lon="-2.64363">
        <ele>116.3</ele>
        <time>2023-02-22T10:31:26.776Z</time>
    </trkpt>
    <trkpt lat="43.16758" lon="-2.6438">
        <ele>115.3</ele>
        <time>2023-02-22T10:31:43.385Z</time>
    </trkpt>
    <trkpt lat="43.16759" lon="-2.64407">
        <ele>114.6</ele>
        <time>2023-02-22T10:32:09.602Z</time>
    </trkpt>
    <trkpt lat="43.16759" lon="-2.64417">
        <ele>114.7</ele>
        <time>2023-02-22T10:32:19.179Z</time>
    </trkpt>
    <trkpt lat="43.16757" lon="-2.64432">
        <ele>115.3</ele>
        <time>2023-02-22T10:32:33.618Z</time>
    </trkpt>
    <trkpt lat="43.16756" lon="-2.64434">
        <ele>115.4</ele>
        <time>2023-02-22T10:32:36.270Z</time>
    </trkpt>
    <trkpt lat="43.16755" lon="-2.64448">
        <ele>116.1</ele>
        <time>2023-02-22T10:32:51.224Z</time>
    </trkpt>
    <trkpt lat="43.16755" lon="-2.64451">
        <ele>116.3</ele>
        <time>2023-02-22T10:32:54.354Z</time>
    </trkpt>
    <trkpt lat="43.16754" lon="-2.64456">
        <ele>116.7</ele>
        <time>2023-02-22T10:33:00.380Z</time>
    </trkpt>
    <trkpt lat="43.16753" lon="-2.6446">
        <ele>117.0</ele>
        <time>2023-02-22T10:33:05.102Z</time>
    </trkpt>
    <trkpt lat="43.1675" lon="-2.6448">
        <ele>118.5</ele>
        <time>2023-02-22T10:33:27.188Z</time>
    </trkpt>
    <trkpt lat="43.16748" lon="-2.64491">
        <ele>119.1</ele>
        <time>2023-02-22T10:33:39.213Z</time>
    </trkpt>
    <trkpt lat="43.16745" lon="-2.64504">
        <ele>120.0</ele>
        <time>2023-02-22T10:33:53.515Z</time>
    </trkpt>
    <trkpt lat="43.1674" lon="-2.64527">
        <ele>122.4</ele>
        <time>2023-02-22T10:34:18.149Z</time>
    </trkpt>
    <trkpt lat="43.16736" lon="-2.64552">
        <ele>124.8</ele>
        <time>2023-02-22T10:34:45.364Z</time>
    </trkpt>
    <trkpt lat="43.16736" lon="-2.645516">
        <ele>124.8</ele>
        <time>2023-02-22T10:34:45.778Z</time>
    </trkpt>
    <trkpt lat="43.16731" lon="-2.64575">
        <ele>126.4</ele>
        <time>2023-02-22T10:35:14.673Z</time>
    </trkpt>
    <trkpt lat="43.16708" lon="-2.64692">
        <ele>140.8</ele>
        <time>2023-02-22T10:37:59.838Z</time>
    </trkpt>
    <trkpt lat="43.16703" lon="-2.64716">
        <ele>145.3</ele>
        <time>2023-02-22T10:38:38.837Z</time>
    </trkpt>
    <trkpt lat="43.16696" lon="-2.64754">
        <ele>149.8</ele>
        <time>2023-02-22T10:39:38.251Z</time>
    </trkpt>
    <trkpt lat="43.16685" lon="-2.64794">
        <ele>155.2</ele>
        <time>2023-02-22T10:40:45.030Z</time>
    </trkpt>
    <trkpt lat="43.16684" lon="-2.64796">
        <ele>155.4</ele>
        <time>2023-02-22T10:40:48.453Z</time>
    </trkpt>
    <trkpt lat="43.16675" lon="-2.64823">
        <ele>158.7</ele>
        <time>2023-02-22T10:41:35.443Z</time>
    </trkpt>
    <trkpt lat="43.16662" lon="-2.64861">
        <ele>160.9</ele>
        <time>2023-02-22T10:42:51.291Z</time>
    </trkpt>
    <trkpt lat="43.16654" lon="-2.64883">
        <ele>162.9</ele>
        <time>2023-02-22T10:43:31.261Z</time>
    </trkpt>
    <trkpt lat="43.16646" lon="-2.64905">
        <ele>164.2</ele>
        <time>2023-02-22T10:44:07.510Z</time>
    </trkpt>
    <trkpt lat="43.16643" lon="-2.6491">
        <ele>164.5</ele>
        <time>2023-02-22T10:44:17.771Z</time>
    </trkpt>
    <trkpt lat="43.16633" lon="-2.6493">
        <ele>166.7</ele>
        <time>2023-02-22T10:44:53.741Z</time>
    </trkpt>
    <trkpt lat="43.16627" lon="-2.6494">
        <ele>168.2</ele>
        <time>2023-02-22T10:45:13.160Z</time>
    </trkpt>
    <trkpt lat="43.16626" lon="-2.64942">
        <ele>168.5</ele>
        <time>2023-02-22T10:45:16.478Z</time>
    </trkpt>
    <trkpt lat="43.16624" lon="-2.64944">
        <ele>168.8</ele>
        <time>2023-02-22T10:45:21.389Z</time>
    </trkpt>
    <trkpt lat="43.16622" lon="-2.64945">
        <ele>168.9</ele>
        <time>2023-02-22T10:45:25.273Z</time>
    </trkpt>
    <trkpt lat="43.16621" lon="-2.64946">
        <ele>169.1</ele>
        <time>2023-02-22T10:45:27.387Z</time>
    </trkpt>
    <trkpt lat="43.1662" lon="-2.64947">
        <ele>169.3</ele>
        <time>2023-02-22T10:45:29.392Z</time>
    </trkpt>
    <trkpt lat="43.16619" lon="-2.64947">
        <ele>169.4</ele>
        <time>2023-02-22T10:45:30.944Z</time>
    </trkpt>
    <trkpt lat="43.16618" lon="-2.64947">
        <ele>169.4</ele>
        <time>2023-02-22T10:45:32.442Z</time>
    </trkpt>
    <trkpt lat="43.16616" lon="-2.64947">
        <ele>169.6</ele>
        <time>2023-02-22T10:45:35.355Z</time>
    </trkpt>
    <trkpt lat="43.16615" lon="-2.64947">
        <ele>169.7</ele>
        <time>2023-02-22T10:45:36.776Z</time>
    </trkpt>
    <trkpt lat="43.16614" lon="-2.64947">
        <ele>169.8</ele>
        <time>2023-02-22T10:45:38.170Z</time>
    </trkpt>
    <trkpt lat="43.16612" lon="-2.64946">
        <ele>169.9</ele>
        <time>2023-02-22T10:45:41.089Z</time>
    </trkpt>
    <trkpt lat="43.16611" lon="-2.64945">
        <ele>169.8</ele>
        <time>2023-02-22T10:45:42.762Z</time>
    </trkpt>
    <trkpt lat="43.1661" lon="-2.64943">
        <ele>169.6</ele>
        <time>2023-02-22T10:45:45.126Z</time>
    </trkpt>
    <trkpt lat="43.16609" lon="-2.6494">
        <ele>169.3</ele>
        <time>2023-02-22T10:45:48.310Z</time>
    </trkpt>
    <trkpt lat="43.16609" lon="-2.64937">
        <ele>168.9</ele>
        <time>2023-02-22T10:45:51.182Z</time>
    </trkpt>
    <trkpt lat="43.16609" lon="-2.64935">
        <ele>168.6</ele>
        <time>2023-02-22T10:45:53.083Z</time>
    </trkpt>
    <trkpt lat="43.16609" lon="-2.64934">
        <ele>168.5</ele>
        <time>2023-02-22T10:45:54.028Z</time>
    </trkpt>
    <trkpt lat="43.16609" lon="-2.64931">
        <ele>168.1</ele>
        <time>2023-02-22T10:45:56.850Z</time>
    </trkpt>
    <trkpt lat="43.1661" lon="-2.64928">
        <ele>167.6</ele>
        <time>2023-02-22T10:45:59.939Z</time>
    </trkpt>
    <trkpt lat="43.16612" lon="-2.64916">
        <ele>166.2</ele>
        <time>2023-02-22T10:46:11.429Z</time>
    </trkpt>
    <trkpt lat="43.16613" lon="-2.64914">
        <ele>165.9</ele>
        <time>2023-02-22T10:46:13.684Z</time>
    </trkpt>
    <trkpt lat="43.16612" lon="-2.64911">
        <ele>165.6</ele>
        <time>2023-02-22T10:46:16.745Z</time>
    </trkpt>
    <trkpt lat="43.16612" lon="-2.6491">
        <ele>165.6</ele>
        <time>2023-02-22T10:46:17.671Z</time>
    </trkpt>
    <trkpt lat="43.16612" lon="-2.64908">
        <ele>165.4</ele>
        <time>2023-02-22T10:46:19.519Z</time>
    </trkpt>
    <trkpt lat="43.16611" lon="-2.64904">
        <ele>165.0</ele>
        <time>2023-02-22T10:46:23.421Z</time>
    </trkpt>
    <trkpt lat="43.1661" lon="-2.64903">
        <ele>165.1</ele>
        <time>2023-02-22T10:46:24.985Z</time>
    </trkpt>
    <trkpt lat="43.16607" lon="-2.64901">
        <ele>165.3</ele>
        <time>2023-02-22T10:46:29.196Z</time>
    </trkpt>
    <trkpt lat="43.16605" lon="-2.64901">
        <ele>165.5</ele>
        <time>2023-02-22T10:46:31.718Z</time>
    </trkpt>
    <trkpt lat="43.16604" lon="-2.64901">
        <ele>165.7</ele>
        <time>2023-02-22T10:46:32.977Z</time>
    </trkpt>
    <trkpt lat="43.16602" lon="-2.64902">
        <ele>166.1</ele>
        <time>2023-02-22T10:46:35.658Z</time>
    </trkpt>
    <trkpt lat="43.166" lon="-2.64903">
        <ele>166.4</ele>
        <time>2023-02-22T10:46:38.337Z</time>
    </trkpt>
    <trkpt lat="43.16599" lon="-2.64905">
        <ele>166.7</ele>
        <time>2023-02-22T10:46:40.562Z</time>
    </trkpt>
    <trkpt lat="43.16598" lon="-2.64905">
        <ele>166.8</ele>
        <time>2023-02-22T10:46:41.819Z</time>
    </trkpt>
    <trkpt lat="43.16592" lon="-2.64916">
        <ele>168.4</ele>
        <time>2023-02-22T10:46:54.414Z</time>
    </trkpt>
    <trkpt lat="43.16588" lon="-2.64924">
        <ele>169.4</ele>
        <time>2023-02-22T10:47:03.305Z</time>
    </trkpt>
    <trkpt lat="43.16578" lon="-2.64945">
        <ele>172.7</ele>
        <time>2023-02-22T10:47:26.906Z</time>
    </trkpt>
    <trkpt lat="43.16576" lon="-2.64951">
        <ele>173.6</ele>
        <time>2023-02-22T10:47:33.197Z</time>
    </trkpt>
    <trkpt lat="43.16569" lon="-2.64966">
        <ele>175.2</ele>
        <time>2023-02-22T10:47:50.289Z</time>
    </trkpt>
    <trkpt lat="43.16564" lon="-2.64977">
        <ele>176.2</ele>
        <time>2023-02-22T10:48:02.819Z</time>
    </trkpt>
    <trkpt lat="43.1656" lon="-2.64987">
        <ele>177.3</ele>
        <time>2023-02-22T10:48:13.751Z</time>
    </trkpt>
    <trkpt lat="43.16558" lon="-2.64993">
        <ele>177.9</ele>
        <time>2023-02-22T10:48:20.029Z</time>
    </trkpt>
    <trkpt lat="43.16555" lon="-2.65004">
        <ele>178.8</ele>
        <time>2023-02-22T10:48:31.763Z</time>
    </trkpt>
    <trkpt lat="43.16554" lon="-2.65011">
        <ele>179.3</ele>
        <time>2023-02-22T10:48:38.792Z</time>
    </trkpt>
    <trkpt lat="43.16553" lon="-2.65019">
        <ele>180.0</ele>
        <time>2023-02-22T10:48:46.763Z</time>
    </trkpt>
    <trkpt lat="43.165432" lon="-2.65035">
        <ele>181.2</ele>
        <time>2023-02-22T10:49:10.455Z</time>
    </trkpt>
    <trkpt lat="43.165365" lon="-2.650443">
        <ele>182.1</ele>
        <time>2023-02-22T10:49:24.764Z</time>
    </trkpt>
    <trkpt lat="43.165217" lon="-2.650708">
        <ele>185.1</ele>
        <time>2023-02-22T10:50:05.056Z</time>
    </trkpt>
    <trkpt lat="43.165066" lon="-2.650967">
        <ele>190.3</ele>
        <time>2023-02-22T10:50:51.076Z</time>
    </trkpt>
    <trkpt lat="43.164897" lon="-2.651318">
        <ele>196.8</ele>
        <time>2023-02-22T10:51:57.321Z</time>
    </trkpt>
    <trkpt lat="43.164691" lon="-2.651667">
        <ele>202.0</ele>
        <time>2023-02-22T10:53:16.359Z</time>
    </trkpt>
    <trkpt lat="43.164571" lon="-2.651815">
        <ele>203.5</ele>
        <time>2023-02-22T10:53:57.274Z</time>
    </trkpt>
    <trkpt lat="43.164481" lon="-2.651806">
        <ele>203.4</ele>
        <time>2023-02-22T10:54:22.690Z</time>
    </trkpt>
    <trkpt lat="43.164415" lon="-2.651815">
        <ele>203.5</ele>
        <time>2023-02-22T10:54:38.431Z</time>
    </trkpt>
    <trkpt lat="43.164337" lon="-2.651984">
        <ele>205.5</ele>
        <time>2023-02-22T10:55:17.579Z</time>
    </trkpt>
    <trkpt lat="43.164268" lon="-2.652134">
        <ele>207.9</ele>
        <time>2023-02-22T10:55:53.542Z</time>
    </trkpt>
    <trkpt lat="43.164198" lon="-2.65227">
        <ele>210.3</ele>
        <time>2023-02-22T10:56:31.137Z</time>
    </trkpt>
    <trkpt lat="43.164141" lon="-2.652494">
        <ele>214.2</ele>
        <time>2023-02-22T10:57:15.050Z</time>
    </trkpt>
    <trkpt lat="43.164114" lon="-2.652914">
        <ele>221.1</ele>
        <time>2023-02-22T10:58:39.009Z</time>
    </trkpt>
    <trkpt lat="43.164126" lon="-2.653137">
        <ele>223.9</ele>
        <time>2023-02-22T10:59:29.457Z</time>
    </trkpt>
    <trkpt lat="43.164182" lon="-2.65333">
        <ele>224.5</ele>
        <time>2023-02-22T11:00:16.361Z</time>
    </trkpt>
    <trkpt lat="43.164235" lon="-2.653444">
        <ele>224.5</ele>
        <time>2023-02-22T11:00:50.778Z</time>
    </trkpt>
    <trkpt lat="43.164303" lon="-2.653757">
        <ele>225.9</ele>
        <time>2023-02-22T11:02:23.249Z</time>
    </trkpt>
    <trkpt lat="43.164391" lon="-2.653963">
        <ele>227.7</ele>
        <time>2023-02-22T11:03:37.549Z</time>
    </trkpt>
    <trkpt lat="43.164445" lon="-2.654266">
        <ele>232.9</ele>
        <time>2023-02-22T11:04:58.440Z</time>
    </trkpt>
    <trkpt lat="43.164363" lon="-2.654562">
        <ele>239.9</ele>
        <time>2023-02-22T11:06:27.987Z</time>
    </trkpt>
    <trkpt lat="43.164211" lon="-2.654774">
        <ele>245.7</ele>
        <time>2023-02-22T11:08:01.780Z</time>
    </trkpt>
    <trkpt lat="43.164087" lon="-2.65496">
        <ele>248.9</ele>
        <time>2023-02-22T11:09:24.399Z</time>
    </trkpt>
    <trkpt lat="43.164079" lon="-2.654977">
        <ele>249.1</ele>
        <time>2023-02-22T11:09:29.179Z</time>
    </trkpt>
    <trkpt lat="43.163951" lon="-2.655366">
        <ele>251.6</ele>
        <time>2023-02-22T11:11:12.321Z</time>
    </trkpt>
    <trkpt lat="43.163869" lon="-2.655597">
        <ele>252.1</ele>
        <time>2023-02-22T11:12:07.688Z</time>
    </trkpt>
    <trkpt lat="43.16384" lon="-2.6557">
        <ele>252.2</ele>
        <time>2023-02-22T11:12:27.634Z</time>
    </trkpt>
    <trkpt lat="43.16381" lon="-2.65574">
        <ele>252.0</ele>
        <time>2023-02-22T11:12:36.875Z</time>
    </trkpt>
    <trkpt lat="43.16375" lon="-2.65586">
        <ele>251.3</ele>
        <time>2023-02-22T11:12:59.254Z</time>
    </trkpt>
    <trkpt lat="43.1637" lon="-2.656">
        <ele>250.7</ele>
        <time>2023-02-22T11:13:21.028Z</time>
    </trkpt>
    <trkpt lat="43.16365" lon="-2.65618">
        <ele>250.7</ele>
        <time>2023-02-22T11:13:46.919Z</time>
    </trkpt>
    <trkpt lat="43.16358" lon="-2.65644">
        <ele>251.4</ele>
        <time>2023-02-22T11:14:22.161Z</time>
    </trkpt>
    <trkpt lat="43.16353" lon="-2.65656">
        <ele>251.8</ele>
        <time>2023-02-22T11:14:39.069Z</time>
    </trkpt>
    <trkpt lat="43.16344" lon="-2.6567">
        <ele>252.0</ele>
        <time>2023-02-22T11:15:01.331Z</time>
    </trkpt>
    <trkpt lat="43.1634" lon="-2.65678">
        <ele>252.1</ele>
        <time>2023-02-22T11:15:12.406Z</time>
    </trkpt>
    <trkpt lat="43.16333" lon="-2.6569">
        <ele>251.9</ele>
        <time>2023-02-22T11:15:31.347Z</time>
    </trkpt>
    <trkpt lat="43.16332" lon="-2.65692">
        <ele>251.9</ele>
        <time>2023-02-22T11:15:34.187Z</time>
    </trkpt>
    <trkpt lat="43.16329" lon="-2.65702">
        <ele>252.2</ele>
        <time>2023-02-22T11:15:46.463Z</time>
    </trkpt>
    <trkpt lat="43.16327" lon="-2.6571">
        <ele>252.4</ele>
        <time>2023-02-22T11:15:55.957Z</time>
    </trkpt>
    <trkpt lat="43.16326" lon="-2.65712">
        <ele>252.6</ele>
        <time>2023-02-22T11:15:58.589Z</time>
    </trkpt>
    <trkpt lat="43.16325" lon="-2.65717">
        <ele>252.9</ele>
        <time>2023-02-22T11:16:04.065Z</time>
    </trkpt>
    <trkpt lat="43.16323" lon="-2.65733">
        <ele>253.8</ele>
        <time>2023-02-22T11:16:20.970Z</time>
    </trkpt>
    <trkpt lat="43.16322" lon="-2.65737">
        <ele>254.2</ele>
        <time>2023-02-22T11:16:26.048Z</time>
    </trkpt>
    <trkpt lat="43.16319" lon="-2.65752">
        <ele>255.5</ele>
        <time>2023-02-22T11:16:43.892Z</time>
    </trkpt>
    <trkpt lat="43.16317" lon="-2.6576">
        <ele>256.6</ele>
        <time>2023-02-22T11:16:54.961Z</time>
    </trkpt>
    <trkpt lat="43.16311" lon="-2.65783">
        <ele>260.1</ele>
        <time>2023-02-22T11:17:27.896Z</time>
    </trkpt>
    <trkpt lat="43.16308" lon="-2.65795">
        <ele>261.8</ele>
        <time>2023-02-22T11:17:47.259Z</time>
    </trkpt>
    <trkpt lat="43.16304" lon="-2.65806">
        <ele>264.1</ele>
        <time>2023-02-22T11:18:07.482Z</time>
    </trkpt>
    <trkpt lat="43.1629" lon="-2.65852">
        <ele>270.4</ele>
        <time>2023-02-22T11:19:40.998Z</time>
    </trkpt>
    <trkpt lat="43.16283" lon="-2.65874">
        <ele>272.7</ele>
        <time>2023-02-22T11:20:29.475Z</time>
    </trkpt>
    <trkpt lat="43.16279" lon="-2.65887">
        <ele>273.8</ele>
        <time>2023-02-22T11:21:01.535Z</time>
    </trkpt>
    <trkpt lat="43.16275" lon="-2.65896">
        <ele>275.4</ele>
        <time>2023-02-22T11:21:28.525Z</time>
    </trkpt>
    <trkpt lat="43.16269" lon="-2.65911">
        <ele>278.2</ele>
        <time>2023-02-22T11:22:16.822Z</time>
    </trkpt>
    <trkpt lat="43.16261" lon="-2.65933">
        <ele>280.9</ele>
        <time>2023-02-22T11:23:29.666Z</time>
    </trkpt>
    <trkpt lat="43.1626" lon="-2.65936">
        <ele>281.1</ele>
        <time>2023-02-22T11:23:36.982Z</time>
    </trkpt>
    <trkpt lat="43.16252" lon="-2.65954">
        <ele>282.1</ele>
        <time>2023-02-22T11:24:17.790Z</time>
    </trkpt>
    <trkpt lat="43.1625" lon="-2.6596">
        <ele>282.2</ele>
        <time>2023-02-22T11:24:31.246Z</time>
    </trkpt>
    <trkpt lat="43.16236" lon="-2.65988">
        <ele>285.1</ele>
        <time>2023-02-22T11:25:42.266Z</time>
    </trkpt>
    <trkpt lat="43.16232" lon="-2.65995">
        <ele>286.0</ele>
        <time>2023-02-22T11:26:02.932Z</time>
    </trkpt>
    <trkpt lat="43.16231" lon="-2.65998">
        <ele>286.3</ele>
        <time>2023-02-22T11:26:09.159Z</time>
    </trkpt>
    <trkpt lat="43.16223" lon="-2.66009">
        <ele>287.7</ele>
        <time>2023-02-22T11:26:39.474Z</time>
    </trkpt>
    <trkpt lat="43.1622" lon="-2.66013">
        <ele>288.0</ele>
        <time>2023-02-22T11:26:49.045Z</time>
    </trkpt>
    <trkpt lat="43.16219" lon="-2.66014">
        <ele>288.1</ele>
        <time>2023-02-22T11:26:52.270Z</time>
    </trkpt>
    <trkpt lat="43.16213" lon="-2.66018">
        <ele>289.1</ele>
        <time>2023-02-22T11:27:07.242Z</time>
    </trkpt>
    <trkpt lat="43.16204" lon="-2.66023">
        <ele>290.5</ele>
        <time>2023-02-22T11:27:28.902Z</time>
    </trkpt>
    <trkpt lat="43.1619" lon="-2.66031">
        <ele>292.5</ele>
        <time>2023-02-22T11:28:04.266Z</time>
    </trkpt>
    <trkpt lat="43.16182" lon="-2.66037">
        <ele>293.3</ele>
        <time>2023-02-22T11:28:26.261Z</time>
    </trkpt>
    <trkpt lat="43.16173" lon="-2.66046">
        <ele>294.4</ele>
        <time>2023-02-22T11:28:53.743Z</time>
    </trkpt>
    <trkpt lat="43.16165" lon="-2.66056">
        <ele>296.0</ele>
        <time>2023-02-22T11:29:19.170Z</time>
    </trkpt>
    <trkpt lat="43.1616" lon="-2.66064">
        <ele>297.0</ele>
        <time>2023-02-22T11:29:36.481Z</time>
    </trkpt>
    <trkpt lat="43.16151" lon="-2.66077">
        <ele>296.8</ele>
        <time>2023-02-22T11:30:05.584Z</time>
    </trkpt>
    <trkpt lat="43.16138" lon="-2.66095">
        <ele>295.1</ele>
        <time>2023-02-22T11:30:51.969Z</time>
    </trkpt>
    <trkpt lat="43.16134" lon="-2.66098">
        <ele>295.2</ele>
        <time>2023-02-22T11:31:04.735Z</time>
    </trkpt>
    <trkpt lat="43.16129" lon="-2.66103">
        <ele>294.8</ele>
        <time>2023-02-22T11:31:21.995Z</time>
    </trkpt>
    <trkpt lat="43.16119" lon="-2.66106">
        <ele>296.1</ele>
        <time>2023-02-22T11:31:54.190Z</time>
    </trkpt>
    <trkpt lat="43.16108" lon="-2.66106">
        <ele>298.8</ele>
        <time>2023-02-22T11:32:24.850Z</time>
    </trkpt>
    <trkpt lat="43.16099" lon="-2.66104">
        <ele>301.7</ele>
        <time>2023-02-22T11:32:48.658Z</time>
    </trkpt>
    <trkpt lat="43.16087" lon="-2.66101">
        <ele>304.8</ele>
        <time>2023-02-22T11:33:22.720Z</time>
    </trkpt>
    <trkpt lat="43.16061" lon="-2.66094">
        <ele>309.9</ele>
        <time>2023-02-22T11:34:42.720Z</time>
    </trkpt>
    <trkpt lat="43.16049" lon="-2.66092">
        <ele>311.6</ele>
        <time>2023-02-22T11:35:18.335Z</time>
    </trkpt>
    <trkpt lat="43.16046" lon="-2.66092">
        <ele>312.1</ele>
        <time>2023-02-22T11:35:28.319Z</time>
    </trkpt>
    <trkpt lat="43.16039" lon="-2.66091">
        <ele>313.3</ele>
        <time>2023-02-22T11:35:54.644Z</time>
    </trkpt>
    <trkpt lat="43.160387" lon="-2.660913">
        <ele>313.3</ele>
        <time>2023-02-22T11:35:55.714Z</time>
    </trkpt>
    <trkpt lat="43.16031" lon="-2.66091">
        <ele>314.5</ele>
        <time>2023-02-22T11:36:17.232Z</time>
    </trkpt>
    <trkpt lat="43.16" lon="-2.66092">
        <ele>320.8</ele>
        <time>2023-02-22T11:37:49.439Z</time>
    </trkpt>
    <trkpt lat="43.15992" lon="-2.66092">
        <ele>322.4</ele>
        <time>2023-02-22T11:38:10.171Z</time>
    </trkpt>
    <trkpt lat="43.15974" lon="-2.66093">
        <ele>324.6</ele>
        <time>2023-02-22T11:38:50.424Z</time>
    </trkpt>
    <trkpt lat="43.15971" lon="-2.66093">
        <ele>324.6</ele>
        <time>2023-02-22T11:38:57.778Z</time>
    </trkpt>
    <trkpt lat="43.15957" lon="-2.66095">
        <ele>324.4</ele>
        <time>2023-02-22T11:39:28.814Z</time>
    </trkpt>
    <trkpt lat="43.15957" lon="-2.66096">
        <ele>324.4</ele>
        <time>2023-02-22T11:39:30.258Z</time>
    </trkpt>
    <trkpt lat="43.15948" lon="-2.66102">
        <ele>323.2</ele>
        <time>2023-02-22T11:39:49.685Z</time>
    </trkpt>
    <trkpt lat="43.15942" lon="-2.6611">
        <ele>322.1</ele>
        <time>2023-02-22T11:40:05.366Z</time>
    </trkpt>
    <trkpt lat="43.159423" lon="-2.661097">
        <ele>322.2</ele>
        <time>2023-02-22T11:40:06.013Z</time>
    </trkpt>
    <trkpt lat="43.15942" lon="-2.66119">
        <ele>321.3</ele>
        <time>2023-02-22T11:40:17.202Z</time>
    </trkpt>
    <trkpt lat="43.15943" lon="-2.66126">
        <ele>320.8</ele>
        <time>2023-02-22T11:40:25.250Z</time>
    </trkpt>
    <trkpt lat="43.15946" lon="-2.66141">
        <ele>318.7</ele>
        <time>2023-02-22T11:40:37.908Z</time>
    </trkpt>
    <trkpt lat="43.15947" lon="-2.66147">
        <ele>317.8</ele>
        <time>2023-02-22T11:40:43.001Z</time>
    </trkpt>
    <trkpt lat="43.15949" lon="-2.66171">
        <ele>314.1</ele>
        <time>2023-02-22T11:41:00.205Z</time>
    </trkpt>
    <trkpt lat="43.15952" lon="-2.662">
        <ele>310.6</ele>
        <time>2023-02-22T11:41:19.941Z</time>
    </trkpt>
    <trkpt lat="43.15955" lon="-2.66224">
        <ele>308.6</ele>
        <time>2023-02-22T11:41:33.428Z</time>
    </trkpt>
    <trkpt lat="43.15959" lon="-2.66245">
        <ele>307.0</ele>
        <time>2023-02-22T11:41:43.859Z</time>
    </trkpt>
    <trkpt lat="43.15959" lon="-2.66247">
        <ele>306.9</ele>
        <time>2023-02-22T11:41:44.893Z</time>
    </trkpt>
    <trkpt lat="43.1596" lon="-2.66254">
        <ele>306.5</ele>
        <time>2023-02-22T11:41:48.241Z</time>
    </trkpt>
    <trkpt lat="43.1596" lon="-2.66262">
        <ele>306.2</ele>
        <time>2023-02-22T11:41:52.302Z</time>
    </trkpt>
    <trkpt lat="43.1596" lon="-2.66269">
        <ele>306.1</ele>
        <time>2023-02-22T11:41:55.496Z</time>
    </trkpt>
    <trkpt lat="43.15959" lon="-2.66278">
        <ele>306.3</ele>
        <time>2023-02-22T11:41:59.988Z</time>
    </trkpt>
    <trkpt lat="43.15956" lon="-2.6629">
        <ele>306.8</ele>
        <time>2023-02-22T11:42:06.747Z</time>
    </trkpt>
    <trkpt lat="43.15952" lon="-2.66303">
        <ele>307.2</ele>
        <time>2023-02-22T11:42:14.711Z</time>
    </trkpt>
    <trkpt lat="43.15948" lon="-2.66311">
        <ele>307.6</ele>
        <time>2023-02-22T11:42:20.520Z</time>
    </trkpt>
    <trkpt lat="43.15942" lon="-2.66318">
        <ele>308.0</ele>
        <time>2023-02-22T11:42:27.430Z</time>
    </trkpt>
    <trkpt lat="43.15932" lon="-2.66329">
        <ele>308.5</ele>
        <time>2023-02-22T11:42:39.630Z</time>
    </trkpt>
    <trkpt lat="43.15929" lon="-2.66331">
        <ele>308.6</ele>
        <time>2023-02-22T11:42:43.108Z</time>
    </trkpt>
    <trkpt lat="43.15917" lon="-2.66343">
        <ele>309.2</ele>
        <time>2023-02-22T11:42:59.126Z</time>
    </trkpt>
    <trkpt lat="43.15916" lon="-2.66345">
        <ele>309.2</ele>
        <time>2023-02-22T11:43:01.073Z</time>
    </trkpt>
    <trkpt lat="43.15905" lon="-2.66356">
        <ele>310.7</ele>
        <time>2023-02-22T11:43:17.388Z</time>
    </trkpt>
    <trkpt lat="43.15903" lon="-2.66358">
        <ele>311.1</ele>
        <time>2023-02-22T11:43:20.800Z</time>
    </trkpt>
    <trkpt lat="43.15895" lon="-2.66368">
        <ele>312.0</ele>
        <time>2023-02-22T11:43:36.621Z</time>
    </trkpt>
    <trkpt lat="43.15888" lon="-2.66382">
        <ele>312.6</ele>
        <time>2023-02-22T11:43:54.742Z</time>
    </trkpt>
    <trkpt lat="43.15882" lon="-2.66397">
        <ele>313.3</ele>
        <time>2023-02-22T11:44:13.257Z</time>
    </trkpt>
    <trkpt lat="43.15877" lon="-2.66408">
        <ele>314.1</ele>
        <time>2023-02-22T11:44:27.207Z</time>
    </trkpt>
    <trkpt lat="43.15874" lon="-2.66416">
        <ele>314.6</ele>
        <time>2023-02-22T11:44:36.601Z</time>
    </trkpt>
    <trkpt lat="43.15873" lon="-2.66419">
        <ele>314.8</ele>
        <time>2023-02-22T11:44:39.869Z</time>
    </trkpt>
    <trkpt lat="43.15872" lon="-2.66421">
        <ele>315.0</ele>
        <time>2023-02-22T11:44:42.557Z</time>
    </trkpt>
    <trkpt lat="43.15868" lon="-2.66432">
        <ele>315.7</ele>
        <time>2023-02-22T11:44:55.775Z</time>
    </trkpt>
    <trkpt lat="43.15864" lon="-2.66446">
        <ele>316.5</ele>
        <time>2023-02-22T11:45:11.553Z</time>
    </trkpt>
    <trkpt lat="43.15861" lon="-2.66457">
        <ele>317.1</ele>
        <time>2023-02-22T11:45:23.471Z</time>
    </trkpt>
    <trkpt lat="43.15858" lon="-2.66464">
        <ele>317.4</ele>
        <time>2023-02-22T11:45:31.651Z</time>
    </trkpt>
    <trkpt lat="43.15856" lon="-2.66472">
        <ele>317.2</ele>
        <time>2023-02-22T11:45:40.125Z</time>
    </trkpt>
    <trkpt lat="43.15852" lon="-2.66494">
        <ele>315.7</ele>
        <time>2023-02-22T11:46:02.669Z</time>
    </trkpt>
    <trkpt lat="43.15847" lon="-2.66519">
        <ele>313.6</ele>
        <time>2023-02-22T11:46:28.359Z</time>
    </trkpt>
    <trkpt lat="43.15845" lon="-2.66528">
        <ele>313.0</ele>
        <time>2023-02-22T11:46:37.651Z</time>
    </trkpt>
    <trkpt lat="43.15844" lon="-2.66535">
        <ele>312.4</ele>
        <time>2023-02-22T11:46:44.607Z</time>
    </trkpt>
    <trkpt lat="43.15844" lon="-2.6654">
        <ele>311.8</ele>
        <time>2023-02-22T11:46:49.501Z</time>
    </trkpt>
    <trkpt lat="43.15842" lon="-2.66548">
        <ele>311.3</ele>
        <time>2023-02-22T11:46:57.896Z</time>
    </trkpt>
    <trkpt lat="43.1584" lon="-2.66556">
        <ele>311.1</ele>
        <time>2023-02-22T11:47:06.192Z</time>
    </trkpt>
    <trkpt lat="43.15839" lon="-2.66559">
        <ele>311.2</ele>
        <time>2023-02-22T11:47:09.393Z</time>
    </trkpt>
    <trkpt lat="43.15838" lon="-2.66562">
        <ele>311.3</ele>
        <time>2023-02-22T11:47:12.605Z</time>
    </trkpt>
    <trkpt lat="43.15833" lon="-2.6657">
        <ele>312.2</ele>
        <time>2023-02-22T11:47:22.726Z</time>
    </trkpt>
    <trkpt lat="43.15827" lon="-2.66578">
        <ele>313.4</ele>
        <time>2023-02-22T11:47:33.486Z</time>
    </trkpt>
    <trkpt lat="43.15824" lon="-2.66583">
        <ele>314.0</ele>
        <time>2023-02-22T11:47:39.312Z</time>
    </trkpt>
    <trkpt lat="43.15816" lon="-2.66597">
        <ele>316.0</ele>
        <time>2023-02-22T11:47:55.233Z</time>
    </trkpt>
    <trkpt lat="43.15815" lon="-2.66599">
        <ele>316.2</ele>
        <time>2023-02-22T11:47:57.410Z</time>
    </trkpt>
    <trkpt lat="43.1581" lon="-2.6661">
        <ele>317.3</ele>
        <time>2023-02-22T11:48:09.096Z</time>
    </trkpt>
    <trkpt lat="43.15806" lon="-2.66623">
        <ele>317.8</ele>
        <time>2023-02-22T11:48:22.083Z</time>
    </trkpt>
    <trkpt lat="43.15805" lon="-2.66635">
        <ele>317.4</ele>
        <time>2023-02-22T11:48:33.356Z</time>
    </trkpt>
    <trkpt lat="43.15803" lon="-2.66645">
        <ele>317.2</ele>
        <time>2023-02-22T11:48:43.126Z</time>
    </trkpt>
    <trkpt lat="43.15801" lon="-2.6665">
        <ele>317.3</ele>
        <time>2023-02-22T11:48:48.593Z</time>
    </trkpt>
    <trkpt lat="43.15799" lon="-2.66655">
        <ele>317.0</ele>
        <time>2023-02-22T11:48:54.021Z</time>
    </trkpt>
    <trkpt lat="43.15797" lon="-2.6666">
        <ele>316.6</ele>
        <time>2023-02-22T11:48:59.924Z</time>
    </trkpt>
    <trkpt lat="43.15793" lon="-2.66665">
        <ele>316.3</ele>
        <time>2023-02-22T11:49:08.034Z</time>
    </trkpt>
    <trkpt lat="43.15789" lon="-2.66669">
        <ele>315.9</ele>
        <time>2023-02-22T11:49:15.513Z</time>
    </trkpt>
    <trkpt lat="43.15778" lon="-2.66676">
        <ele>314.8</ele>
        <time>2023-02-22T11:49:34.716Z</time>
    </trkpt>
    <trkpt lat="43.15768" lon="-2.66677">
        <ele>314.7</ele>
        <time>2023-02-22T11:49:50.550Z</time>
    </trkpt>
    <trkpt lat="43.15765" lon="-2.66677">
        <ele>314.7</ele>
        <time>2023-02-22T11:49:55.345Z</time>
    </trkpt>
    <trkpt lat="43.15762" lon="-2.66677">
        <ele>314.7</ele>
        <time>2023-02-22T11:49:59.950Z</time>
    </trkpt>
    <trkpt lat="43.15761" lon="-2.66677">
        <ele>314.8</ele>
        <time>2023-02-22T11:50:01.435Z</time>
    </trkpt>
    <trkpt lat="43.15757" lon="-2.66675">
        <ele>315.3</ele>
        <time>2023-02-22T11:50:08.025Z</time>
    </trkpt>
    <trkpt lat="43.15737" lon="-2.66669">
        <ele>317.5</ele>
        <time>2023-02-22T11:50:41.928Z</time>
    </trkpt>
    <trkpt lat="43.15728" lon="-2.66665">
        <ele>319.2</ele>
        <time>2023-02-22T11:50:57.172Z</time>
    </trkpt>
    <trkpt lat="43.15726" lon="-2.66664">
        <ele>319.6</ele>
        <time>2023-02-22T11:51:00.461Z</time>
    </trkpt>
    <trkpt lat="43.1572" lon="-2.66662">
        <ele>320.5</ele>
        <time>2023-02-22T11:51:09.722Z</time>
    </trkpt>
    <trkpt lat="43.15708" lon="-2.66659">
        <ele>321.4</ele>
        <time>2023-02-22T11:51:28.385Z</time>
    </trkpt>
    <trkpt lat="43.15699" lon="-2.66658">
        <ele>321.8</ele>
        <time>2023-02-22T11:51:42.735Z</time>
    </trkpt>
    <trkpt lat="43.15691" lon="-2.66658">
        <ele>322.5</ele>
        <time>2023-02-22T11:51:54.959Z</time>
    </trkpt>
    <trkpt lat="43.1569" lon="-2.66658">
        <ele>322.7</ele>
        <time>2023-02-22T11:51:56.438Z</time>
    </trkpt>
    <trkpt lat="43.15681" lon="-2.6666">
        <ele>323.7</ele>
        <time>2023-02-22T11:52:10.116Z</time>
    </trkpt>
    <trkpt lat="43.1567" lon="-2.66665">
        <ele>324.8</ele>
        <time>2023-02-22T11:52:29.410Z</time>
    </trkpt>
    <trkpt lat="43.15663" lon="-2.6667">
        <ele>326.2</ele>
        <time>2023-02-22T11:52:42.659Z</time>
    </trkpt>
    <trkpt lat="43.1566" lon="-2.66674">
        <ele>326.6</ele>
        <time>2023-02-22T11:52:49.344Z</time>
    </trkpt>
    <trkpt lat="43.15659" lon="-2.66678">
        <ele>326.4</ele>
        <time>2023-02-22T11:52:54.077Z</time>
    </trkpt>
    <trkpt lat="43.15655" lon="-2.66695">
        <ele>326.4</ele>
        <time>2023-02-22T11:53:13.382Z</time>
    </trkpt>
    <trkpt lat="43.15654" lon="-2.66701">
        <ele>326.4</ele>
        <time>2023-02-22T11:53:19.858Z</time>
    </trkpt>
    <trkpt lat="43.15654" lon="-2.66706">
        <ele>326.1</ele>
        <time>2023-02-22T11:53:24.885Z</time>
    </trkpt>
    <trkpt lat="43.15654" lon="-2.66729">
        <ele>325.0</ele>
        <time>2023-02-22T11:53:48.221Z</time>
    </trkpt>
    <trkpt lat="43.15654" lon="-2.6675">
        <ele>324.3</ele>
        <time>2023-02-22T11:54:10.302Z</time>
    </trkpt>
    <trkpt lat="43.15654" lon="-2.66775">
        <ele>324.1</ele>
        <time>2023-02-22T11:54:36.576Z</time>
    </trkpt>
    <trkpt lat="43.15654" lon="-2.66786">
        <ele>323.9</ele>
        <time>2023-02-22T11:54:47.755Z</time>
    </trkpt>
    <trkpt lat="43.15653" lon="-2.66807">
        <ele>323.4</ele>
        <time>2023-02-22T11:55:05.980Z</time>
    </trkpt>
    <trkpt lat="43.15652" lon="-2.66817">
        <ele>323.1</ele>
        <time>2023-02-22T11:55:13.679Z</time>
    </trkpt>
    <trkpt lat="43.15651" lon="-2.66825">
        <ele>322.5</ele>
        <time>2023-02-22T11:55:19.688Z</time>
    </trkpt>
    <trkpt lat="43.15648" lon="-2.66829">
        <ele>323.2</ele>
        <time>2023-02-22T11:55:23.876Z</time>
    </trkpt>
    <trkpt lat="43.15646" lon="-2.66832">
        <ele>323.9</ele>
        <time>2023-02-22T11:55:26.634Z</time>
    </trkpt>
    <trkpt lat="43.15643" lon="-2.66835">
        <ele>325.0</ele>
        <time>2023-02-22T11:55:30.227Z</time>
    </trkpt>
    <trkpt lat="43.15639" lon="-2.66842">
        <ele>325.9</ele>
        <time>2023-02-22T11:55:36.705Z</time>
    </trkpt>
    <trkpt lat="43.15634" lon="-2.66848">
        <ele>327.4</ele>
        <time>2023-02-22T11:55:43.558Z</time>
    </trkpt>
    <trkpt lat="43.15631" lon="-2.66852">
        <ele>328.1</ele>
        <time>2023-02-22T11:55:47.901Z</time>
    </trkpt>
    <trkpt lat="43.15627" lon="-2.66861">
        <ele>328.0</ele>
        <time>2023-02-22T11:55:56.099Z</time>
    </trkpt>
    <trkpt lat="43.15625" lon="-2.6687">
        <ele>327.0</ele>
        <time>2023-02-22T11:56:03.528Z</time>
    </trkpt>
    <trkpt lat="43.15623" lon="-2.66883">
        <ele>324.9</ele>
        <time>2023-02-22T11:56:14.247Z</time>
    </trkpt>
    <trkpt lat="43.1562" lon="-2.66898">
        <ele>322.4</ele>
        <time>2023-02-22T11:56:27.043Z</time>
    </trkpt>
    <trkpt lat="43.15616" lon="-2.66909">
        <ele>320.7</ele>
        <time>2023-02-22T11:56:37.366Z</time>
    </trkpt>
    <trkpt lat="43.15615" lon="-2.66912">
        <ele>320.1</ele>
        <time>2023-02-22T11:56:40.348Z</time>
    </trkpt>
    <trkpt lat="43.15614" lon="-2.66914">
        <ele>319.8</ele>
        <time>2023-02-22T11:56:42.544Z</time>
    </trkpt>
    <trkpt lat="43.15612" lon="-2.66916">
        <ele>319.7</ele>
        <time>2023-02-22T11:56:45.698Z</time>
    </trkpt>
    <trkpt lat="43.1561" lon="-2.66918">
        <ele>319.6</ele>
        <time>2023-02-22T11:56:48.933Z</time>
    </trkpt>
    <trkpt lat="43.15608" lon="-2.66919">
        <ele>319.7</ele>
        <time>2023-02-22T11:56:51.779Z</time>
    </trkpt>
    <trkpt lat="43.15604" lon="-2.66921">
        <ele>320.0</ele>
        <time>2023-02-22T11:56:57.568Z</time>
    </trkpt>
    <trkpt lat="43.15597" lon="-2.66924">
        <ele>320.2</ele>
        <time>2023-02-22T11:57:07.863Z</time>
    </trkpt>
    <trkpt lat="43.15588" lon="-2.66925">
        <ele>321.4</ele>
        <time>2023-02-22T11:57:20.522Z</time>
    </trkpt>
    <trkpt lat="43.15577" lon="-2.66926">
        <ele>322.7</ele>
        <time>2023-02-22T11:57:35.794Z</time>
    </trkpt>
    <trkpt lat="43.15567" lon="-2.66926">
        <ele>323.8</ele>
        <time>2023-02-22T11:57:49.374Z</time>
    </trkpt>
    <trkpt lat="43.15565" lon="-2.66926">
        <ele>324.0</ele>
        <time>2023-02-22T11:57:52.056Z</time>
    </trkpt>
    <trkpt lat="43.15554" lon="-2.66929">
        <ele>324.5</ele>
        <time>2023-02-22T11:58:06.621Z</time>
    </trkpt>
    <trkpt lat="43.15545" lon="-2.66933">
        <ele>324.7</ele>
        <time>2023-02-22T11:58:18.521Z</time>
    </trkpt>
    <trkpt lat="43.15538" lon="-2.66936">
        <ele>324.9</ele>
        <time>2023-02-22T11:58:27.717Z</time>
    </trkpt>
    <trkpt lat="43.15535" lon="-2.66936">
        <ele>325.3</ele>
        <time>2023-02-22T11:58:31.479Z</time>
    </trkpt>
    <trkpt lat="43.15532" lon="-2.66936">
        <ele>325.7</ele>
        <time>2023-02-22T11:58:35.272Z</time>
    </trkpt>
    <trkpt lat="43.15531" lon="-2.66936">
        <ele>325.8</ele>
        <time>2023-02-22T11:58:36.534Z</time>
    </trkpt>
    <trkpt lat="43.15528" lon="-2.66937">
        <ele>326.1</ele>
        <time>2023-02-22T11:58:40.530Z</time>
    </trkpt>
    <trkpt lat="43.15527" lon="-2.66937">
        <ele>326.2</ele>
        <time>2023-02-22T11:58:41.817Z</time>
    </trkpt>
    <trkpt lat="43.15525" lon="-2.66937">
        <ele>326.5</ele>
        <time>2023-02-22T11:58:44.723Z</time>
    </trkpt>
    <trkpt lat="43.15522" lon="-2.66939">
        <ele>326.5</ele>
        <time>2023-02-22T11:58:49.694Z</time>
    </trkpt>
    <trkpt lat="43.1552" lon="-2.6694">
        <ele>326.6</ele>
        <time>2023-02-22T11:58:53.092Z</time>
    </trkpt>
    <trkpt lat="43.15519" lon="-2.66941">
        <ele>326.5</ele>
        <time>2023-02-22T11:58:55.308Z</time>
    </trkpt>
    <trkpt lat="43.15517" lon="-2.66942">
        <ele>326.7</ele>
        <time>2023-02-22T11:58:58.891Z</time>
    </trkpt>
    <trkpt lat="43.15515" lon="-2.66945">
        <ele>326.6</ele>
        <time>2023-02-22T11:59:04.029Z</time>
    </trkpt>
    <trkpt lat="43.15512" lon="-2.66948">
        <ele>326.9</ele>
        <time>2023-02-22T11:59:10.119Z</time>
    </trkpt>
    <trkpt lat="43.15511" lon="-2.66952">
        <ele>326.8</ele>
        <time>2023-02-22T11:59:14.955Z</time>
    </trkpt>
    <trkpt lat="43.1551" lon="-2.66955">
        <ele>326.9</ele>
        <time>2023-02-22T11:59:18.590Z</time>
    </trkpt>
    <trkpt lat="43.15508" lon="-2.66964">
        <ele>326.9</ele>
        <time>2023-02-22T11:59:28.844Z</time>
    </trkpt>
    <trkpt lat="43.15507" lon="-2.66965">
        <ele>327.2</ele>
        <time>2023-02-22T11:59:30.641Z</time>
    </trkpt>
    <trkpt lat="43.15506" lon="-2.66972">
        <ele>327.3</ele>
        <time>2023-02-22T11:59:38.024Z</time>
    </trkpt>
    <trkpt lat="43.15506" lon="-2.66977">
        <ele>327.2</ele>
        <time>2023-02-22T11:59:43.306Z</time>
    </trkpt>
    <trkpt lat="43.15507" lon="-2.66985">
        <ele>326.8</ele>
        <time>2023-02-22T11:59:51.688Z</time>
    </trkpt>
    <trkpt lat="43.15508" lon="-2.66992">
        <ele>326.5</ele>
        <time>2023-02-22T11:59:58.931Z</time>
    </trkpt>
    <trkpt lat="43.15516" lon="-2.67015">
        <ele>324.4</ele>
        <time>2023-02-22T12:00:24.389Z</time>
    </trkpt>
    <trkpt lat="43.15541" lon="-2.67064">
        <ele>326.0</ele>
        <time>2023-02-22T12:01:25.025Z</time>
    </trkpt>
    <trkpt lat="43.15557" lon="-2.67092">
        <ele>327.3</ele>
        <time>2023-02-22T12:02:05.078Z</time>
    </trkpt>
    <trkpt lat="43.15573" lon="-2.67117">
        <ele>327.8</ele>
        <time>2023-02-22T12:02:45.275Z</time>
    </trkpt>
    <trkpt lat="43.15586" lon="-2.67135">
        <ele>328.7</ele>
        <time>2023-02-22T12:03:19.546Z</time>
    </trkpt>
    <trkpt lat="43.15592" lon="-2.67144">
        <ele>329.5</ele>
        <time>2023-02-22T12:03:36.312Z</time>
    </trkpt>
    <trkpt lat="43.15596" lon="-2.67152">
        <ele>330.5</ele>
        <time>2023-02-22T12:03:50.254Z</time>
    </trkpt>
    <trkpt lat="43.15599" lon="-2.67158">
        <ele>331.2</ele>
        <time>2023-02-22T12:03:59.886Z</time>
    </trkpt>
    <trkpt lat="43.15601" lon="-2.67166">
        <ele>332.6</ele>
        <time>2023-02-22T12:04:12.732Z</time>
    </trkpt>
    <trkpt lat="43.15602" lon="-2.67171">
        <ele>333.5</ele>
        <time>2023-02-22T12:04:21.503Z</time>
    </trkpt>
    <trkpt lat="43.15604" lon="-2.6718">
        <ele>335.3</ele>
        <time>2023-02-22T12:04:37.988Z</time>
    </trkpt>
    <trkpt lat="43.15606" lon="-2.67191">
        <ele>337.5</ele>
        <time>2023-02-22T12:04:59.641Z</time>
    </trkpt>
    <trkpt lat="43.15607" lon="-2.67192">
        <ele>337.4</ele>
        <time>2023-02-22T12:05:03.318Z</time>
    </trkpt>
    <trkpt lat="43.15609" lon="-2.67205">
        <ele>339.8</ele>
        <time>2023-02-22T12:05:35.836Z</time>
    </trkpt>
    <trkpt lat="43.15612" lon="-2.67216">
        <ele>340.7</ele>
        <time>2023-02-22T12:06:06.509Z</time>
    </trkpt>
    <trkpt lat="43.15615" lon="-2.67227">
        <ele>341.6</ele>
        <time>2023-02-22T12:06:39.558Z</time>
    </trkpt>
    <trkpt lat="43.15618" lon="-2.67239">
        <ele>342.4</ele>
        <time>2023-02-22T12:07:09.252Z</time>
    </trkpt>
    <trkpt lat="43.156183" lon="-2.672388">
        <ele>342.3</ele>
        <time>2023-02-22T12:07:10.119Z</time>
    </trkpt>
    <trkpt lat="43.15616" lon="-2.67244">
        <ele>343.7</ele>
        <time>2023-02-22T12:07:20.058Z</time>
    </trkpt>
    <trkpt lat="43.15614" lon="-2.67251">
        <ele>345.2</ele>
        <time>2023-02-22T12:07:31.646Z</time>
    </trkpt>
    <trkpt lat="43.15613" lon="-2.6726">
        <ele>346.6</ele>
        <time>2023-02-22T12:07:45.829Z</time>
    </trkpt>
    <trkpt lat="43.15612" lon="-2.6727">
        <ele>348.2</ele>
        <time>2023-02-22T12:08:02.428Z</time>
    </trkpt>
    <trkpt lat="43.1561" lon="-2.67282">
        <ele>350.4</ele>
        <time>2023-02-22T12:08:24.465Z</time>
    </trkpt>
    <trkpt lat="43.15609" lon="-2.67286">
        <ele>351.2</ele>
        <time>2023-02-22T12:08:31.084Z</time>
    </trkpt>
    <trkpt lat="43.15608" lon="-2.67291">
        <ele>352.2</ele>
        <time>2023-02-22T12:08:39.842Z</time>
    </trkpt>
    <trkpt lat="43.15606" lon="-2.67301">
        <ele>354.1</ele>
        <time>2023-02-22T12:08:56.931Z</time>
    </trkpt>
    <trkpt lat="43.15606" lon="-2.67308">
        <ele>354.6</ele>
        <time>2023-02-22T12:09:09.613Z</time>
    </trkpt>
    <trkpt lat="43.15606" lon="-2.6731">
        <ele>354.8</ele>
        <time>2023-02-22T12:09:12.771Z</time>
    </trkpt>
    <trkpt lat="43.15607" lon="-2.67315">
        <ele>354.8</ele>
        <time>2023-02-22T12:09:21.428Z</time>
    </trkpt>
    <trkpt lat="43.15608" lon="-2.6732">
        <ele>354.8</ele>
        <time>2023-02-22T12:09:30.601Z</time>
    </trkpt>
    <trkpt lat="43.15608" lon="-2.67323">
        <ele>355.0</ele>
        <time>2023-02-22T12:09:35.256Z</time>
    </trkpt>
    <trkpt lat="43.15609" lon="-2.67325">
        <ele>355.0</ele>
        <time>2023-02-22T12:09:38.663Z</time>
    </trkpt>
    <trkpt lat="43.1561" lon="-2.67327">
        <ele>354.9</ele>
        <time>2023-02-22T12:09:42.530Z</time>
    </trkpt>
    <trkpt lat="43.15611" lon="-2.67329">
        <ele>354.8</ele>
        <time>2023-02-22T12:09:46.944Z</time>
    </trkpt>
    <trkpt lat="43.15613" lon="-2.67332">
        <ele>354.6</ele>
        <time>2023-02-22T12:09:53.387Z</time>
    </trkpt>
    <trkpt lat="43.15616" lon="-2.67334">
        <ele>354.2</ele>
        <time>2023-02-22T12:09:59.919Z</time>
    </trkpt>
    <trkpt lat="43.1562" lon="-2.67338">
        <ele>353.7</ele>
        <time>2023-02-22T12:10:08.862Z</time>
    </trkpt>
    <trkpt lat="43.15622" lon="-2.67341">
        <ele>353.6</ele>
        <time>2023-02-22T12:10:14.716Z</time>
    </trkpt>
    <trkpt lat="43.15624" lon="-2.67344">
        <ele>353.6</ele>
        <time>2023-02-22T12:10:20.106Z</time>
    </trkpt>
    <trkpt lat="43.15625" lon="-2.67346">
        <ele>353.6</ele>
        <time>2023-02-22T12:10:23.759Z</time>
    </trkpt>
    <trkpt lat="43.15626" lon="-2.67348">
        <ele>353.7</ele>
        <time>2023-02-22T12:10:27.090Z</time>
    </trkpt>
    <trkpt lat="43.15627" lon="-2.6735">
        <ele>353.7</ele>
        <time>2023-02-22T12:10:30.907Z</time>
    </trkpt>
    <trkpt lat="43.15628" lon="-2.67357">
        <ele>354.4</ele>
        <time>2023-02-22T12:10:41.042Z</time>
    </trkpt>
    <trkpt lat="43.15631" lon="-2.6737">
        <ele>355.6</ele>
        <time>2023-02-22T12:11:02.407Z</time>
    </trkpt>
    <trkpt lat="43.15632" lon="-2.67386">
        <ele>358.0</ele>
        <time>2023-02-22T12:11:28.117Z</time>
    </trkpt>
    <trkpt lat="43.15635" lon="-2.67396">
        <ele>359.2</ele>
        <time>2023-02-22T12:11:46.400Z</time>
    </trkpt>
    <trkpt lat="43.1564" lon="-2.67422">
        <ele>362.2</ele>
        <time>2023-02-22T12:12:31.555Z</time>
    </trkpt>
    <trkpt lat="43.15642" lon="-2.67442">
        <ele>363.9</ele>
        <time>2023-02-22T12:13:06.152Z</time>
    </trkpt>
    <trkpt lat="43.15642" lon="-2.67444">
        <ele>364.1</ele>
        <time>2023-02-22T12:13:09.820Z</time>
    </trkpt>
    <trkpt lat="43.15644" lon="-2.67466">
        <ele>365.1</ele>
        <time>2023-02-22T12:13:53.570Z</time>
    </trkpt>
    <trkpt lat="43.15644" lon="-2.67469">
        <ele>365.1</ele>
        <time>2023-02-22T12:14:00.278Z</time>
    </trkpt>
    <trkpt lat="43.15644" lon="-2.67487">
        <ele>365.1</ele>
        <time>2023-02-22T12:14:40.417Z</time>
    </trkpt>
    <trkpt lat="43.15644" lon="-2.67504">
        <ele>365.5</ele>
        <time>2023-02-22T12:15:19.017Z</time>
    </trkpt>
    <trkpt lat="43.15644" lon="-2.6751">
        <ele>365.9</ele>
        <time>2023-02-22T12:15:32.065Z</time>
    </trkpt>
    <trkpt lat="43.15646" lon="-2.67518">
        <ele>365.2</ele>
        <time>2023-02-22T12:15:51.514Z</time>
    </trkpt>
    <trkpt lat="43.15646" lon="-2.67521">
        <ele>365.4</ele>
        <time>2023-02-22T12:15:58.880Z</time>
    </trkpt>
    <trkpt lat="43.1565" lon="-2.67533">
        <ele>364.5</ele>
        <time>2023-02-22T12:16:26.414Z</time>
    </trkpt>
    <trkpt lat="43.15655" lon="-2.67542">
        <ele>363.7</ele>
        <time>2023-02-22T12:16:49.309Z</time>
    </trkpt>
    <trkpt lat="43.1566" lon="-2.6755">
        <ele>362.7</ele>
        <time>2023-02-22T12:17:07.983Z</time>
    </trkpt>
    <trkpt lat="43.15661" lon="-2.67555">
        <ele>363.1</ele>
        <time>2023-02-22T12:17:17.320Z</time>
    </trkpt>
    <trkpt lat="43.15663" lon="-2.6756">
        <ele>362.9</ele>
        <time>2023-02-22T12:17:27.646Z</time>
    </trkpt>
    <trkpt lat="43.15663" lon="-2.67565">
        <ele>364.0</ele>
        <time>2023-02-22T12:17:37.075Z</time>
    </trkpt>
    <trkpt lat="43.15663" lon="-2.67573">
        <ele>365.8</ele>
        <time>2023-02-22T12:17:53.010Z</time>
    </trkpt>
    <trkpt lat="43.15662" lon="-2.67579">
        <ele>367.5</ele>
        <time>2023-02-22T12:18:03.430Z</time>
    </trkpt>
    <trkpt lat="43.1566" lon="-2.67588">
        <ele>370.4</ele>
        <time>2023-02-22T12:18:21.577Z</time>
    </trkpt>
    <trkpt lat="43.1566" lon="-2.676">
        <ele>372.8</ele>
        <time>2023-02-22T12:18:47.386Z</time>
    </trkpt>
    <trkpt lat="43.1566" lon="-2.6761">
        <ele>374.6</ele>
        <time>2023-02-22T12:19:09.174Z</time>
    </trkpt>
    <trkpt lat="43.15662" lon="-2.67624">
        <ele>376.0</ele>
        <time>2023-02-22T12:19:36.216Z</time>
    </trkpt>
    <trkpt lat="43.15664" lon="-2.67634">
        <ele>375.9</ele>
        <time>2023-02-22T12:19:55.241Z</time>
    </trkpt>
    <trkpt lat="43.15665" lon="-2.67638">
        <ele>375.6</ele>
        <time>2023-02-22T12:20:01.982Z</time>
    </trkpt>
    <trkpt lat="43.15666" lon="-2.67652">
        <ele>376.0</ele>
        <time>2023-02-22T12:20:24.101Z</time>
    </trkpt>
    <trkpt lat="43.15667" lon="-2.67658">
        <ele>375.7</ele>
        <time>2023-02-22T12:20:33.624Z</time>
    </trkpt>
    <trkpt lat="43.15668" lon="-2.67661">
        <ele>375.3</ele>
        <time>2023-02-22T12:20:38.445Z</time>
    </trkpt>
    <trkpt lat="43.15668" lon="-2.67673">
        <ele>376.7</ele>
        <time>2023-02-22T12:20:56.318Z</time>
    </trkpt>
    <trkpt lat="43.15668" lon="-2.67682">
        <ele>377.7</ele>
        <time>2023-02-22T12:21:09.711Z</time>
    </trkpt>
    <trkpt lat="43.15668" lon="-2.67689">
        <ele>378.6</ele>
        <time>2023-02-22T12:21:21.255Z</time>
    </trkpt>
    <trkpt lat="43.15669" lon="-2.67694">
        <ele>378.6</ele>
        <time>2023-02-22T12:21:28.887Z</time>
    </trkpt>
    <trkpt lat="43.15669" lon="-2.67703">
        <ele>379.9</ele>
        <time>2023-02-22T12:21:43.043Z</time>
    </trkpt>
    <trkpt lat="43.15669" lon="-2.67707">
        <ele>380.5</ele>
        <time>2023-02-22T12:21:48.722Z</time>
    </trkpt>
    <trkpt lat="43.15669" lon="-2.67708">
        <ele>380.7</ele>
        <time>2023-02-22T12:21:50.032Z</time>
    </trkpt>
    <trkpt lat="43.15669" lon="-2.6771">
        <ele>381.0</ele>
        <time>2023-02-22T12:21:52.841Z</time>
    </trkpt>
    <trkpt lat="43.1567" lon="-2.67711">
        <ele>380.6</ele>
        <time>2023-02-22T12:21:55.511Z</time>
    </trkpt>
    <trkpt lat="43.1567" lon="-2.67713">
        <ele>380.9</ele>
        <time>2023-02-22T12:21:58.352Z</time>
    </trkpt>
    <trkpt lat="43.15671" lon="-2.67714">
        <ele>380.6</ele>
        <time>2023-02-22T12:22:00.981Z</time>
    </trkpt>
    <trkpt lat="43.15672" lon="-2.67715">
        <ele>380.3</ele>
        <time>2023-02-22T12:22:03.363Z</time>
    </trkpt>
    <trkpt lat="43.15674" lon="-2.67715">
        <ele>379.6</ele>
        <time>2023-02-22T12:22:07.633Z</time>
    </trkpt>
    <trkpt lat="43.15679" lon="-2.67717">
        <ele>378.8</ele>
        <time>2023-02-22T12:22:19.103Z</time>
    </trkpt>
    <trkpt lat="43.15683" lon="-2.6772">
        <ele>378.3</ele>
        <time>2023-02-22T12:22:28.294Z</time>
    </trkpt>
    <trkpt lat="43.15685" lon="-2.67721">
        <ele>378.0</ele>
        <time>2023-02-22T12:22:31.917Z</time>
    </trkpt>
    <trkpt lat="43.156849" lon="-2.677211">
        <ele>378.0</ele>
        <time>2023-02-22T12:22:32.116Z</time>
    </trkpt>
    <trkpt lat="43.15688" lon="-2.67723">
        <ele>377.6</ele>
        <time>2023-02-22T12:22:37.375Z</time>
    </trkpt>
    <trkpt lat="43.15691" lon="-2.67727">
        <ele>377.6</ele>
        <time>2023-02-22T12:22:43.520Z</time>
    </trkpt>
    <trkpt lat="43.15695" lon="-2.67732">
        <ele>377.4</ele>
        <time>2023-02-22T12:22:50.855Z</time>
    </trkpt>
    <trkpt lat="43.15697" lon="-2.67735">
        <ele>377.6</ele>
        <time>2023-02-22T12:22:54.824Z</time>
    </trkpt>
    <trkpt lat="43.15698" lon="-2.67736">
        <ele>377.6</ele>
        <time>2023-02-22T12:22:56.464Z</time>
    </trkpt>
    <trkpt lat="43.15702" lon="-2.67743">
        <ele>378.0</ele>
        <time>2023-02-22T12:23:04.649Z</time>
    </trkpt>
    <trkpt lat="43.15706" lon="-2.67748">
        <ele>378.0</ele>
        <time>2023-02-22T12:23:11.301Z</time>
    </trkpt>
    <trkpt lat="43.15711" lon="-2.67757">
        <ele>378.4</ele>
        <time>2023-02-22T12:23:21.473Z</time>
    </trkpt>
    <trkpt lat="43.15714" lon="-2.67766">
        <ele>379.1</ele>
        <time>2023-02-22T12:23:30.233Z</time>
    </trkpt>
    <trkpt lat="43.15719" lon="-2.67775">
        <ele>379.1</ele>
        <time>2023-02-22T12:23:40.134Z</time>
    </trkpt>
    <trkpt lat="43.15723" lon="-2.67783">
        <ele>380.1</ele>
        <time>2023-02-22T12:23:48.679Z</time>
    </trkpt>
    <trkpt lat="43.15729" lon="-2.67792">
        <ele>382.1</ele>
        <time>2023-02-22T12:23:59.482Z</time>
    </trkpt>
    <trkpt lat="43.15732" lon="-2.67797">
        <ele>383.5</ele>
        <time>2023-02-22T12:24:04.986Z</time>
    </trkpt>
    <trkpt lat="43.15735" lon="-2.67799">
        <ele>384.3</ele>
        <time>2023-02-22T12:24:08.009Z</time>
    </trkpt>
    <trkpt lat="43.15738" lon="-2.67799">
        <ele>384.6</ele>
        <time>2023-02-22T12:24:10.368Z</time>
    </trkpt>
    <trkpt lat="43.15741" lon="-2.67797">
        <ele>384.3</ele>
        <time>2023-02-22T12:24:13.147Z</time>
    </trkpt>
    <trkpt lat="43.15744" lon="-2.67794">
        <ele>384.0</ele>
        <time>2023-02-22T12:24:16.355Z</time>
    </trkpt>
    <trkpt lat="43.15744" lon="-2.67793">
        <ele>383.8</ele>
        <time>2023-02-22T12:24:17.015Z</time>
    </trkpt>
    <trkpt lat="43.15749" lon="-2.67787">
        <ele>383.4</ele>
        <time>2023-02-22T12:24:23.307Z</time>
    </trkpt>
    <trkpt lat="43.15752" lon="-2.67781">
        <ele>382.4</ele>
        <time>2023-02-22T12:24:28.524Z</time>
    </trkpt>
    <trkpt lat="43.15761" lon="-2.67767">
        <ele>380.1</ele>
        <time>2023-02-22T12:24:42.518Z</time>
    </trkpt>
    <trkpt lat="43.15768" lon="-2.67756">
        <ele>377.6</ele>
        <time>2023-02-22T12:24:53.748Z</time>
    </trkpt>
    <trkpt lat="43.15772" lon="-2.67749">
        <ele>376.1</ele>
        <time>2023-02-22T12:25:00.903Z</time>
    </trkpt>
    <trkpt lat="43.15779" lon="-2.67736">
        <ele>372.6</ele>
        <time>2023-02-22T12:25:14.321Z</time>
    </trkpt>
    <trkpt lat="43.15781" lon="-2.67733">
        <ele>371.8</ele>
        <time>2023-02-22T12:25:17.751Z</time>
    </trkpt>
    <trkpt lat="43.15789" lon="-2.67722">
        <ele>368.7</ele>
        <time>2023-02-22T12:25:31.046Z</time>
    </trkpt>
    <trkpt lat="43.15793" lon="-2.6772">
        <ele>368.6</ele>
        <time>2023-02-22T12:25:36.544Z</time>
    </trkpt>
    <trkpt lat="43.15797" lon="-2.67719">
        <ele>368.9</ele>
        <time>2023-02-22T12:25:41.805Z</time>
    </trkpt>
    <trkpt lat="43.15799" lon="-2.67719">
        <ele>369.2</ele>
        <time>2023-02-22T12:25:44.381Z</time>
    </trkpt>
    <trkpt lat="43.15803" lon="-2.67721">
        <ele>370.6</ele>
        <time>2023-02-22T12:25:50.074Z</time>
    </trkpt>
    <trkpt lat="43.15806" lon="-2.67723">
        <ele>371.7</ele>
        <time>2023-02-22T12:25:53.990Z</time>
    </trkpt>
    <trkpt lat="43.15823" lon="-2.67733">
        <ele>378.3</ele>
        <time>2023-02-22T12:26:16.254Z</time>
    </trkpt>
    <trkpt lat="43.15826" lon="-2.67734">
        <ele>379.2</ele>
        <time>2023-02-22T12:26:19.992Z</time>
    </trkpt>
    <trkpt lat="43.15843" lon="-2.67741">
        <ele>384.0</ele>
        <time>2023-02-22T12:26:43.285Z</time>
    </trkpt>
    <trkpt lat="43.15849" lon="-2.67743">
        <ele>385.0</ele>
        <time>2023-02-22T12:26:52.348Z</time>
    </trkpt>
    <trkpt lat="43.15861" lon="-2.67746">
        <ele>386.6</ele>
        <time>2023-02-22T12:27:12.468Z</time>
    </trkpt>
    <trkpt lat="43.15867" lon="-2.67747">
        <ele>387.8</ele>
        <time>2023-02-22T12:27:22.619Z</time>
    </trkpt>
    <trkpt lat="43.15878" lon="-2.6775">
        <ele>390.5</ele>
        <time>2023-02-22T12:27:44.269Z</time>
    </trkpt>
    <trkpt lat="43.15887" lon="-2.67751">
        <ele>392.2</ele>
        <time>2023-02-22T12:28:04.233Z</time>
    </trkpt>
    <trkpt lat="43.15894" lon="-2.67751">
        <ele>393.7</ele>
        <time>2023-02-22T12:28:21.892Z</time>
    </trkpt>
    <trkpt lat="43.15905" lon="-2.6775">
        <ele>395.8</ele>
        <time>2023-02-22T12:28:45.870Z</time>
    </trkpt>
    <trkpt lat="43.1592" lon="-2.67745">
        <ele>398.1</ele>
        <time>2023-02-22T12:29:20.227Z</time>
    </trkpt>
    <trkpt lat="43.15931" lon="-2.6774">
        <ele>399.4</ele>
        <time>2023-02-22T12:29:43.377Z</time>
    </trkpt>
    <trkpt lat="43.15933" lon="-2.67739">
        <ele>399.6</ele>
        <time>2023-02-22T12:29:48.158Z</time>
    </trkpt>
    <trkpt lat="43.15946" lon="-2.67729">
        <ele>399.8</ele>
        <time>2023-02-22T12:30:18.740Z</time>
    </trkpt>
    <trkpt lat="43.15947" lon="-2.67729">
        <ele>400.0</ele>
        <time>2023-02-22T12:30:20.612Z</time>
    </trkpt>
    <trkpt lat="43.15957" lon="-2.67718">
        <ele>398.1</ele>
        <time>2023-02-22T12:30:43.749Z</time>
    </trkpt>
    <trkpt lat="43.15965" lon="-2.67708">
        <ele>396.1</ele>
        <time>2023-02-22T12:31:02.058Z</time>
    </trkpt>
    <trkpt lat="43.15968" lon="-2.67705">
        <ele>395.6</ele>
        <time>2023-02-22T12:31:07.650Z</time>
    </trkpt>
    <trkpt lat="43.15971" lon="-2.677">
        <ele>394.4</ele>
        <time>2023-02-22T12:31:14.562Z</time>
    </trkpt>
    <trkpt lat="43.15973" lon="-2.67696">
        <ele>393.4</ele>
        <time>2023-02-22T12:31:19.622Z</time>
    </trkpt>
    <trkpt lat="43.15973" lon="-2.67695">
        <ele>393.0</ele>
        <time>2023-02-22T12:31:20.643Z</time>
    </trkpt>
    <trkpt lat="43.15975" lon="-2.67692">
        <ele>392.5</ele>
        <time>2023-02-22T12:31:24.739Z</time>
    </trkpt>
    <trkpt lat="43.15978" lon="-2.67686">
        <ele>391.6</ele>
        <time>2023-02-22T12:31:32.013Z</time>
    </trkpt>
    <trkpt lat="43.15986" lon="-2.67678">
        <ele>392.4</ele>
        <time>2023-02-22T12:31:45.639Z</time>
    </trkpt>
    <trkpt lat="43.15992" lon="-2.67673">
        <ele>393.4</ele>
        <time>2023-02-22T12:31:55.304Z</time>
    </trkpt>
    <trkpt lat="43.15994" lon="-2.6767">
        <ele>393.5</ele>
        <time>2023-02-22T12:31:59.376Z</time>
    </trkpt>
    <trkpt lat="43.15997" lon="-2.67667">
        <ele>394.0</ele>
        <time>2023-02-22T12:32:04.500Z</time>
    </trkpt>
    <trkpt lat="43.16" lon="-2.67664">
        <ele>394.6</ele>
        <time>2023-02-22T12:32:09.549Z</time>
    </trkpt>
    <trkpt lat="43.16" lon="-2.67663">
        <ele>394.4</ele>
        <time>2023-02-22T12:32:10.527Z</time>
    </trkpt>
    <trkpt lat="43.16003" lon="-2.67658">
        <ele>394.6</ele>
        <time>2023-02-22T12:32:16.366Z</time>
    </trkpt>
    <trkpt lat="43.16009" lon="-2.67647">
        <ele>394.2</ele>
        <time>2023-02-22T12:32:28.785Z</time>
    </trkpt>
    <trkpt lat="43.16012" lon="-2.67639">
        <ele>393.4</ele>
        <time>2023-02-22T12:32:36.343Z</time>
    </trkpt>
    <trkpt lat="43.16016" lon="-2.67631">
        <ele>392.8</ele>
        <time>2023-02-22T12:32:44.549Z</time>
    </trkpt>
    <trkpt lat="43.16021" lon="-2.67624">
        <ele>392.5</ele>
        <time>2023-02-22T12:32:52.696Z</time>
    </trkpt>
    <trkpt lat="43.16025" lon="-2.67621">
        <ele>392.7</ele>
        <time>2023-02-22T12:32:57.966Z</time>
    </trkpt>
    <trkpt lat="43.16028" lon="-2.6762">
        <ele>393.0</ele>
        <time>2023-02-22T12:33:01.351Z</time>
    </trkpt>
    <trkpt lat="43.16032" lon="-2.6762">
        <ele>393.4</ele>
        <time>2023-02-22T12:33:05.822Z</time>
    </trkpt>
    <trkpt lat="43.16035" lon="-2.6762">
        <ele>393.6</ele>
        <time>2023-02-22T12:33:09.192Z</time>
    </trkpt>
    <trkpt lat="43.16039" lon="-2.67621">
        <ele>394.2</ele>
        <time>2023-02-22T12:33:13.614Z</time>
    </trkpt>
    <trkpt lat="43.16045" lon="-2.67624">
        <ele>395.7</ele>
        <time>2023-02-22T12:33:20.489Z</time>
    </trkpt>
    <trkpt lat="43.16052" lon="-2.67628">
        <ele>397.7</ele>
        <time>2023-02-22T12:33:28.898Z</time>
    </trkpt>
    <trkpt lat="43.16064" lon="-2.67635">
        <ele>399.4</ele>
        <time>2023-02-22T12:33:43.243Z</time>
    </trkpt>
    <trkpt lat="43.16067" lon="-2.67638">
        <ele>400.2</ele>
        <time>2023-02-22T12:33:47.404Z</time>
    </trkpt>
    <trkpt lat="43.16072" lon="-2.67641">
        <ele>401.0</ele>
        <time>2023-02-22T12:33:53.596Z</time>
    </trkpt>
    <trkpt lat="43.16079" lon="-2.67641">
        <ele>400.3</ele>
        <time>2023-02-22T12:34:01.658Z</time>
    </trkpt>
    <trkpt lat="43.16084" lon="-2.6764">
        <ele>399.1</ele>
        <time>2023-02-22T12:34:07.556Z</time>
    </trkpt>
    <trkpt lat="43.16091" lon="-2.67639">
        <ele>397.4</ele>
        <time>2023-02-22T12:34:15.861Z</time>
    </trkpt>
    <trkpt lat="43.16096" lon="-2.67639">
        <ele>396.4</ele>
        <time>2023-02-22T12:34:21.810Z</time>
    </trkpt>
    <trkpt lat="43.16105" lon="-2.6764">
        <ele>394.2</ele>
        <time>2023-02-22T12:34:32.702Z</time>
    </trkpt>
    <trkpt lat="43.16108" lon="-2.67641">
        <ele>393.5</ele>
        <time>2023-02-22T12:34:36.651Z</time>
    </trkpt>
    <trkpt lat="43.16115" lon="-2.67644">
        <ele>392.0</ele>
        <time>2023-02-22T12:34:46.152Z</time>
    </trkpt>
    <trkpt lat="43.16123" lon="-2.67648">
        <ele>390.6</ele>
        <time>2023-02-22T12:34:57.560Z</time>
    </trkpt>
    <trkpt lat="43.16132" lon="-2.67654">
        <ele>389.9</ele>
        <time>2023-02-22T12:35:10.845Z</time>
    </trkpt>
    <trkpt lat="43.16141" lon="-2.6766">
        <ele>389.4</ele>
        <time>2023-02-22T12:35:24.097Z</time>
    </trkpt>
    <trkpt lat="43.16144" lon="-2.67663">
        <ele>389.6</ele>
        <time>2023-02-22T12:35:28.973Z</time>
    </trkpt>
    <trkpt lat="43.16156" lon="-2.67673">
        <ele>391.9</ele>
        <time>2023-02-22T12:35:46.662Z</time>
    </trkpt>
    <trkpt lat="43.16169" lon="-2.67686">
        <ele>394.9</ele>
        <time>2023-02-22T12:36:05.562Z</time>
    </trkpt>
    <trkpt lat="43.16182" lon="-2.67696">
        <ele>396.9</ele>
        <time>2023-02-22T12:36:23.251Z</time>
    </trkpt>
    <trkpt lat="43.16187" lon="-2.67699">
        <ele>397.4</ele>
        <time>2023-02-22T12:36:30.566Z</time>
    </trkpt>
    <trkpt lat="43.16199" lon="-2.67706">
        <ele>398.1</ele>
        <time>2023-02-22T12:36:49.694Z</time>
    </trkpt>
    <trkpt lat="43.16219" lon="-2.67716">
        <ele>398.3</ele>
        <time>2023-02-22T12:37:21.791Z</time>
    </trkpt>
    <trkpt lat="43.1622" lon="-2.67717">
        <ele>398.4</ele>
        <time>2023-02-22T12:37:23.601Z</time>
    </trkpt>
    <trkpt lat="43.16234" lon="-2.67725">
        <ele>398.2</ele>
        <time>2023-02-22T12:37:46.589Z</time>
    </trkpt>
    <trkpt lat="43.16245" lon="-2.67732">
        <ele>398.6</ele>
        <time>2023-02-22T12:38:05.046Z</time>
    </trkpt>
    <trkpt lat="43.1626" lon="-2.67744">
        <ele>400.4</ele>
        <time>2023-02-22T12:38:30.744Z</time>
    </trkpt>
    <trkpt lat="43.16266" lon="-2.67748">
        <ele>401.0</ele>
        <time>2023-02-22T12:38:40.436Z</time>
    </trkpt>
    <trkpt lat="43.16269" lon="-2.67749">
        <ele>401.3</ele>
        <time>2023-02-22T12:38:44.828Z</time>
    </trkpt>
    <trkpt lat="43.16271" lon="-2.6775">
        <ele>401.6</ele>
        <time>2023-02-22T12:38:47.928Z</time>
    </trkpt>
    <trkpt lat="43.16275" lon="-2.67751">
        <ele>401.8</ele>
        <time>2023-02-22T12:38:53.709Z</time>
    </trkpt>
    <trkpt lat="43.16279" lon="-2.6775">
        <ele>401.4</ele>
        <time>2023-02-22T12:38:59.377Z</time>
    </trkpt>
    <trkpt lat="43.16285" lon="-2.67747">
        <ele>400.4</ele>
        <time>2023-02-22T12:39:08.174Z</time>
    </trkpt>
    <trkpt lat="43.16286" lon="-2.67746">
        <ele>400.1</ele>
        <time>2023-02-22T12:39:09.850Z</time>
    </trkpt>
    <trkpt lat="43.16297" lon="-2.67739">
        <ele>398.6</ele>
        <time>2023-02-22T12:39:26.050Z</time>
    </trkpt>
    <trkpt lat="43.16306" lon="-2.67732">
        <ele>397.7</ele>
        <time>2023-02-22T12:39:39.740Z</time>
    </trkpt>
    <trkpt lat="43.16313" lon="-2.67728">
        <ele>397.8</ele>
        <time>2023-02-22T12:39:49.789Z</time>
    </trkpt>
    <trkpt lat="43.16322" lon="-2.67723">
        <ele>399.0</ele>
        <time>2023-02-22T12:40:02.549Z</time>
    </trkpt>
    <trkpt lat="43.16325" lon="-2.67723">
        <ele>399.7</ele>
        <time>2023-02-22T12:40:06.513Z</time>
    </trkpt>
    <trkpt lat="43.16328" lon="-2.6772">
        <ele>400.0</ele>
        <time>2023-02-22T12:40:11.381Z</time>
    </trkpt>
    <trkpt lat="43.16332" lon="-2.67711">
        <ele>399.7</ele>
        <time>2023-02-22T12:40:21.347Z</time>
    </trkpt>
    <trkpt lat="43.16333" lon="-2.6771">
        <ele>399.8</ele>
        <time>2023-02-22T12:40:22.943Z</time>
    </trkpt>
    <trkpt lat="43.16347" lon="-2.67688">
        <ele>400.2</ele>
        <time>2023-02-22T12:40:50.037Z</time>
    </trkpt>
    <trkpt lat="43.16352" lon="-2.67674">
        <ele>399.9</ele>
        <time>2023-02-22T12:41:03.332Z</time>
    </trkpt>
    <trkpt lat="43.16353" lon="-2.67671">
        <ele>399.8</ele>
        <time>2023-02-22T12:41:06.174Z</time>
    </trkpt>
    <trkpt lat="43.16354" lon="-2.67667">
        <ele>399.7</ele>
        <time>2023-02-22T12:41:09.216Z</time>
    </trkpt>
    <trkpt lat="43.16355" lon="-2.67662">
        <ele>399.4</ele>
        <time>2023-02-22T12:41:13.001Z</time>
    </trkpt>
    <trkpt lat="43.16358" lon="-2.67655">
        <ele>399.5</ele>
        <time>2023-02-22T12:41:19.114Z</time>
    </trkpt>
    <trkpt lat="43.1637" lon="-2.67633">
        <ele>400.7</ele>
        <time>2023-02-22T12:41:39.579Z</time>
    </trkpt>
    <trkpt lat="43.16382" lon="-2.6761">
        <ele>399.4</ele>
        <time>2023-02-22T12:41:59.642Z</time>
    </trkpt>
    <trkpt lat="43.16385" lon="-2.67604">
        <ele>398.7</ele>
        <time>2023-02-22T12:42:04.533Z</time>
    </trkpt>
    <trkpt lat="43.16393" lon="-2.67595">
        <ele>398.2</ele>
        <time>2023-02-22T12:42:13.917Z</time>
    </trkpt>
    <trkpt lat="43.16401" lon="-2.67586">
        <ele>396.3</ele>
        <time>2023-02-22T12:42:22.569Z</time>
    </trkpt>
    <trkpt lat="43.16414" lon="-2.67577">
        <ele>394.7</ele>
        <time>2023-02-22T12:42:33.442Z</time>
    </trkpt>
    <trkpt lat="43.16424" lon="-2.67571">
        <ele>393.8</ele>
        <time>2023-02-22T12:42:41.375Z</time>
    </trkpt>
    <trkpt lat="43.164326" lon="-2.675622">
        <ele>392.0</ele>
        <time>2023-02-22T12:42:48.253Z</time>
    </trkpt>
    <trkpt lat="43.164406" lon="-2.675547">
        <ele>391.5</ele>
        <time>2023-02-22T12:42:54.374Z</time>
    </trkpt>
    <trkpt lat="43.164489" lon="-2.675439">
        <ele>390.2</ele>
        <time>2023-02-22T12:43:02.183Z</time>
    </trkpt>
    <trkpt lat="43.164664" lon="-2.675297">
        <ele>390.0</ele>
        <time>2023-02-22T12:43:14.654Z</time>
    </trkpt>
    <trkpt lat="43.164717" lon="-2.67513">
        <ele>387.0</ele>
        <time>2023-02-22T12:43:22.762Z</time>
    </trkpt>
    <trkpt lat="43.164675" lon="-2.674894">
        <ele>380.8</ele>
        <time>2023-02-22T12:43:34.342Z</time>
    </trkpt>
    <trkpt lat="43.164622" lon="-2.674706">
        <ele>375.7</ele>
        <time>2023-02-22T12:43:43.712Z</time>
    </trkpt>
    <trkpt lat="43.164603" lon="-2.674502">
        <ele>371.0</ele>
        <time>2023-02-22T12:43:54.325Z</time>
    </trkpt>
    <trkpt lat="43.164604" lon="-2.674196">
        <ele>365.2</ele>
        <time>2023-02-22T12:44:11.483Z</time>
    </trkpt>
    <trkpt lat="43.164587" lon="-2.673907">
        <ele>360.7</ele>
        <time>2023-02-22T12:44:29.322Z</time>
    </trkpt>
    <trkpt lat="43.164565" lon="-2.673689">
        <ele>357.9</ele>
        <time>2023-02-22T12:44:41.403Z</time>
    </trkpt>
    <trkpt lat="43.164534" lon="-2.673448">
        <ele>354.2</ele>
        <time>2023-02-22T12:44:55.988Z</time>
    </trkpt>
    <trkpt lat="43.164521" lon="-2.6733">
        <ele>352.1</ele>
        <time>2023-02-22T12:45:03.561Z</time>
    </trkpt>
    <trkpt lat="43.164465" lon="-2.673128">
        <ele>349.0</ele>
        <time>2023-02-22T12:45:13.121Z</time>
    </trkpt>
    <trkpt lat="43.164447" lon="-2.672939">
        <ele>346.3</ele>
        <time>2023-02-22T12:45:22.529Z</time>
    </trkpt>
    <trkpt lat="43.164405" lon="-2.672845">
        <ele>344.4</ele>
        <time>2023-02-22T12:45:28.374Z</time>
    </trkpt>
    <trkpt lat="43.164337" lon="-2.672632">
        <ele>340.9</ele>
        <time>2023-02-22T12:45:40.880Z</time>
    </trkpt>
    <trkpt lat="43.164264" lon="-2.672396">
        <ele>336.6</ele>
        <time>2023-02-22T12:45:52.943Z</time>
    </trkpt>
    <trkpt lat="43.16423" lon="-2.672243">
        <ele>334.8</ele>
        <time>2023-02-22T12:46:00.599Z</time>
    </trkpt>
    <trkpt lat="43.164172" lon="-2.672073">
        <ele>332.8</ele>
        <time>2023-02-22T12:46:09.274Z</time>
    </trkpt>
    <trkpt lat="43.16416016729204" lon="-2.671802755651674">
        <ele>329.3</ele>
        <time>2023-02-22T12:46:23.171Z</time>
    </trkpt>
    <trkpt lat="43.16416404750788" lon="-2.67164357980671">
        <ele>326.9</ele>
        <time>2023-02-22T12:46:31.314Z</time>
    </trkpt>
    <trkpt lat="43.16415438050264" lon="-2.671513584704467">
        <ele>324.6</ele>
        <time>2023-02-22T12:46:38.468Z</time>
    </trkpt>
    <trkpt lat="43.16417761350276" lon="-2.671311964465772">
        <ele>321.5</ele>
        <time>2023-02-22T12:46:48.910Z</time>
    </trkpt>
    <trkpt lat="43.16421052179951" lon="-2.671105039432415">
        <ele>318.4</ele>
        <time>2023-02-22T12:46:59.370Z</time>
    </trkpt>
    <trkpt lat="43.16422214463621" lon="-2.6708928059952">
        <ele>315.6</ele>
        <time>2023-02-22T12:47:09.536Z</time>
    </trkpt>
    <trkpt lat="43.16417764585503" lon="-2.670768113309183">
        <ele>313.7</ele>
        <time>2023-02-22T12:47:15.553Z</time>
    </trkpt>
    <trkpt lat="43.16402090521518" lon="-2.670805237469789">
        <ele>312.1</ele>
        <time>2023-02-22T12:47:25.816Z</time>
    </trkpt>
    <trkpt lat="43.16380417490258" lon="-2.670906024768216">
        <ele>308.6</ele>
        <time>2023-02-22T12:47:41.743Z</time>
    </trkpt>
    <trkpt lat="43.16362807676264" lon="-2.671070485480525">
        <ele>306.3</ele>
        <time>2023-02-22T12:47:56.930Z</time>
    </trkpt>
    <trkpt lat="43.16351002710901" lon="-2.671274745457427">
        <ele>306.1</ele>
        <time>2023-02-22T12:48:11.871Z</time>
    </trkpt>
    <trkpt lat="43.16338036324214" lon="-2.671534714295674">
        <ele>305.6</ele>
        <time>2023-02-22T12:48:30.998Z</time>
    </trkpt>
    <trkpt lat="43.16327392398187" lon="-2.671720404296">
        <ele>304.9</ele>
        <time>2023-02-22T12:48:46.103Z</time>
    </trkpt>
    <trkpt lat="43.163129" lon="-2.671886">
        <ele>302.6</ele>
        <time>2023-02-22T12:49:04.087Z</time>
    </trkpt>
    <trkpt lat="43.162974" lon="-2.672054">
        <ele>299.9</ele>
        <time>2023-02-22T12:49:22.757Z</time>
    </trkpt>
    <trkpt lat="43.162964" lon="-2.671901">
        <ele>298.6</ele>
        <time>2023-02-22T12:49:33.751Z</time>
    </trkpt>
    <trkpt lat="43.16305" lon="-2.671493">
        <ele>297.3</ele>
        <time>2023-02-22T12:50:02.364Z</time>
    </trkpt>
    <trkpt lat="43.163121" lon="-2.671124">
        <ele>295.8</ele>
        <time>2023-02-22T12:50:26.163Z</time>
    </trkpt>
    <trkpt lat="43.163125" lon="-2.671092">
        <ele>295.7</ele>
        <time>2023-02-22T12:50:28.289Z</time>
    </trkpt>
    <trkpt lat="43.163094" lon="-2.67079">
        <ele>291.6</ele>
        <time>2023-02-22T12:50:46.173Z</time>
    </trkpt>
    <trkpt lat="43.162946" lon="-2.670594">
        <ele>284.9</ele>
        <time>2023-02-22T12:51:03.384Z</time>
    </trkpt>
    <trkpt lat="43.162542" lon="-2.670648">
        <ele>277.0</ele>
        <time>2023-02-22T12:51:40.423Z</time>
    </trkpt>
    <trkpt lat="43.16239941830585" lon="-2.670490039658417">
        <ele>270.9</ele>
        <time>2023-02-22T12:51:56.437Z</time>
    </trkpt>
    <trkpt lat="43.16230488046654" lon="-2.670400164268387">
        <ele>266.9</ele>
        <time>2023-02-22T12:52:07.365Z</time>
    </trkpt>
    <trkpt lat="43.16223933670731" lon="-2.670291282218961">
        <ele>263.5</ele>
        <time>2023-02-22T12:52:15.648Z</time>
    </trkpt>
    <trkpt lat="43.16219270160303" lon="-2.670178945977282">
        <ele>260.7</ele>
        <time>2023-02-22T12:52:22.186Z</time>
    </trkpt>
    <trkpt lat="43.16214102316222" lon="-2.670085619411656">
        <ele>257.9</ele>
        <time>2023-02-22T12:52:27.449Z</time>
    </trkpt>
    <trkpt lat="43.16211959625765" lon="-2.670032043913398">
        <ele>256.4</ele>
        <time>2023-02-22T12:52:30.502Z</time>
    </trkpt>
    <trkpt lat="43.16209565380866" lon="-2.669866136865618">
        <ele>252.9</ele>
        <time>2023-02-22T12:52:39.570Z</time>
    </trkpt>
    <trkpt lat="43.16203515156758" lon="-2.669764169004374">
        <ele>249.9</ele>
        <time>2023-02-22T12:52:47.106Z</time>
    </trkpt>
    <trkpt lat="43.161994" lon="-2.669792">
        <ele>249.6</ele>
        <time>2023-02-22T12:52:50.927Z</time>
    </trkpt>
    <trkpt lat="43.16195" lon="-2.669866">
        <ele>249.7</ele>
        <time>2023-02-22T12:52:57.034Z</time>
    </trkpt>
    <trkpt lat="43.1618283979396" lon="-2.670192735652723">
        <ele>248.9</ele>
        <time>2023-02-22T12:53:21.609Z</time>
    </trkpt>
    <trkpt lat="43.16181452423005" lon="-2.670334444054676">
        <ele>249.1</ele>
        <time>2023-02-22T12:53:31.589Z</time>
    </trkpt>
    <trkpt lat="43.16175527034514" lon="-2.670467506932762">
        <ele>247.1</ele>
        <time>2023-02-22T12:53:42.872Z</time>
    </trkpt>
    <trkpt lat="43.16166072249363" lon="-2.670562546205274">
        <ele>242.9</ele>
        <time>2023-02-22T12:53:54.881Z</time>
    </trkpt>
    <trkpt lat="43.16159391265349" lon="-2.670557354713417">
        <ele>239.2</ele>
        <time>2023-02-22T12:54:00.968Z</time>
    </trkpt>
    <trkpt lat="43.16150537991706" lon="-2.670477249176704">
        <ele>233.9</ele>
        <time>2023-02-22T12:54:11.032Z</time>
    </trkpt>
    <trkpt lat="43.1614505105336" lon="-2.670261441846407">
        <ele>232.3</ele>
        <time>2023-02-22T12:54:24.158Z</time>
    </trkpt>
    <trkpt lat="43.16134800350153" lon="-2.670047048171544">
        <ele>230.5</ele>
        <time>2023-02-22T12:54:38.111Z</time>
    </trkpt>
    <trkpt lat="43.1612687258529" lon="-2.669794930859108">
        <ele>226.7</ele>
        <time>2023-02-22T12:54:51.137Z</time>
    </trkpt>
    <trkpt lat="43.1612073911643" lon="-2.669624027787872">
        <ele>221.6</ele>
        <time>2023-02-22T12:55:01.158Z</time>
    </trkpt>
    <trkpt lat="43.1611929073307" lon="-2.669421005397103">
        <ele>217.3</ele>
        <time>2023-02-22T12:55:11.375Z</time>
    </trkpt>
    <trkpt lat="43.16113492961531" lon="-2.669199521254627">
        <ele>211.8</ele>
        <time>2023-02-22T12:55:24.402Z</time>
    </trkpt>
    <trkpt lat="43.16105312928317" lon="-2.669031983857692">
        <ele>207.3</ele>
        <time>2023-02-22T12:55:34.788Z</time>
    </trkpt>
    <trkpt lat="43.16095372910645" lon="-2.66877926142542">
        <ele>203.8</ele>
        <time>2023-02-22T12:55:47.874Z</time>
    </trkpt>
    <trkpt lat="43.16092668949552" lon="-2.668634298269321">
        <ele>202.9</ele>
        <time>2023-02-22T12:55:54.139Z</time>
    </trkpt>
    <trkpt lat="43.16097632196526" lon="-2.668425133809909">
        <ele>201.1</ele>
        <time>2023-02-22T12:56:02.684Z</time>
    </trkpt>
    <trkpt lat="43.16104691007927" lon="-2.6682364688416">
        <ele>200.0</ele>
        <time>2023-02-22T12:56:11.322Z</time>
    </trkpt>
    <trkpt lat="43.16112279321909" lon="-2.668009102300126">
        <ele>198.5</ele>
        <time>2023-02-22T12:56:21.548Z</time>
    </trkpt>
    <trkpt lat="43.16115985705118" lon="-2.667813177060014">
        <ele>196.9</ele>
        <time>2023-02-22T12:56:29.273Z</time>
    </trkpt>
    <trkpt lat="43.16119691889821" lon="-2.667646278381397">
        <ele>195.6</ele>
        <time>2023-02-22T12:56:35.577Z</time>
    </trkpt>
    <trkpt lat="43.16122516282938" lon="-2.667397136919786">
        <ele>195.0</ele>
        <time>2023-02-22T12:56:44.852Z</time>
    </trkpt>
    <trkpt lat="43.16134162951698" lon="-2.667087531678321">
        <ele>193.9</ele>
        <time>2023-02-22T12:56:58.271Z</time>
    </trkpt>
    <trkpt lat="43.16148985375906" lon="-2.666799697783533">
        <ele>189.7</ele>
        <time>2023-02-22T12:57:12.325Z</time>
    </trkpt>
    <trkpt lat="43.16157631924711" lon="-2.666598937077164">
        <ele>188.4</ele>
        <time>2023-02-22T12:57:22.216Z</time>
    </trkpt>
    <trkpt lat="43.16168230928266" lon="-2.666318262713003">
        <ele>190.6</ele>
        <time>2023-02-22T12:57:35.781Z</time>
    </trkpt>
    <trkpt lat="43.16180935810664" lon="-2.666042518519605">
        <ele>192.2</ele>
        <time>2023-02-22T12:57:50.285Z</time>
    </trkpt>
    <trkpt lat="43.16192581775469" lon="-2.665822407107438">
        <ele>190.8</ele>
        <time>2023-02-22T12:58:02.603Z</time>
    </trkpt>
    <trkpt lat="43.16208462485198" lon="-2.665551500254827">
        <ele>189.7</ele>
        <time>2023-02-22T12:58:18.539Z</time>
    </trkpt>
    <trkpt lat="43.16216527851521" lon="-2.665429323394078">
        <ele>188.5</ele>
        <time>2023-02-22T12:58:26.705Z</time>
    </trkpt>
    <trkpt lat="43.16228702682773" lon="-2.665305966700319">
        <ele>186.1</ele>
        <time>2023-02-22T12:58:36.973Z</time>
    </trkpt>
    <trkpt lat="43.16237701379413" lon="-2.665240661609574">
        <ele>183.4</ele>
        <time>2023-02-22T12:58:44.123Z</time>
    </trkpt>
    <trkpt lat="43.16246972553996" lon="-2.66508366037617">
        <ele>182.5</ele>
        <time>2023-02-22T12:58:54.360Z</time>
    </trkpt>
    <trkpt lat="43.16256147939217" lon="-2.664936111295446">
        <ele>181.3</ele>
        <time>2023-02-22T12:59:04.024Z</time>
    </trkpt>
    <trkpt lat="43.16269422434114" lon="-2.664664844510671">
        <ele>181.6</ele>
        <time>2023-02-22T12:59:21.239Z</time>
    </trkpt>
    <trkpt lat="43.16280715119515" lon="-2.664493105953376">
        <ele>181.4</ele>
        <time>2023-02-22T12:59:32.692Z</time>
    </trkpt>
    <trkpt lat="43.16291302061343" lon="-2.664302014896148">
        <ele>181.8</ele>
        <time>2023-02-22T12:59:44.697Z</time>
    </trkpt>
    <trkpt lat="43.16303123980671" lon="-2.664142369979132">
        <ele>182.0</ele>
        <time>2023-02-22T12:59:56.741Z</time>
    </trkpt>
    <trkpt lat="43.16313627924445" lon="-2.66407706297207">
        <ele>180.2</ele>
        <time>2023-02-22T13:00:05.534Z</time>
    </trkpt>
    <trkpt lat="43.16331978096485" lon="-2.663927095550199">
        <ele>178.9</ele>
        <time>2023-02-22T13:00:22.575Z</time>
    </trkpt>
    <trkpt lat="43.16346269974404" lon="-2.663844856604336">
        <ele>178.6</ele>
        <time>2023-02-22T13:00:35.339Z</time>
    </trkpt>
    <trkpt lat="43.16359326646363" lon="-2.663820672022149">
        <ele>177.9</ele>
        <time>2023-02-22T13:00:46.639Z</time>
    </trkpt>
    <trkpt lat="43.16370266126202" lon="-2.663755363794284">
        <ele>178.7</ele>
        <time>2023-02-22T13:00:57.382Z</time>
    </trkpt>
    <trkpt lat="43.16378559093864" lon="-2.663648931342432">
        <ele>180.5</ele>
        <time>2023-02-22T13:01:07.318Z</time>
    </trkpt>
    <trkpt lat="43.16390910106453" lon="-2.663593298709781">
        <ele>180.2</ele>
        <time>2023-02-22T13:01:18.088Z</time>
    </trkpt>
    <trkpt lat="43.16399735484141" lon="-2.663578788965405">
        <ele>179.2</ele>
        <time>2023-02-22T13:01:25.646Z</time>
    </trkpt>
    <trkpt lat="43.16408733995126" lon="-2.663566697183279">
        <ele>178.2</ele>
        <time>2023-02-22T13:01:33.725Z</time>
    </trkpt>
    <trkpt lat="43.16424364078416" lon="-2.663515101552422">
        <ele>177.2</ele>
        <time>2023-02-22T13:01:47.085Z</time>
    </trkpt>
    <trkpt lat="43.164562" lon="-2.663382">
        <ele>175.0</ele>
        <time>2023-02-22T13:02:13.085Z</time>
    </trkpt>
    <trkpt lat="43.164776" lon="-2.663282">
        <ele>171.8</ele>
        <time>2023-02-22T13:02:31.059Z</time>
    </trkpt>
    <trkpt lat="43.165048" lon="-2.663039">
        <ele>166.1</ele>
        <time>2023-02-22T13:02:53.741Z</time>
    </trkpt>
    <trkpt lat="43.16534" lon="-2.663142">
        <ele>159.6</ele>
        <time>2023-02-22T13:03:12.655Z</time>
    </trkpt>
    <trkpt lat="43.165722" lon="-2.663002">
        <ele>156.8</ele>
        <time>2023-02-22T13:03:35.654Z</time>
    </trkpt>
    <trkpt lat="43.166014" lon="-2.662728">
        <ele>155.1</ele>
        <time>2023-02-22T13:03:56.791Z</time>
    </trkpt>
    <trkpt lat="43.166185" lon="-2.662455">
        <ele>154.3</ele>
        <time>2023-02-22T13:04:13.385Z</time>
    </trkpt>
    <trkpt lat="43.166284" lon="-2.662303">
        <ele>154.2</ele>
        <time>2023-02-22T13:04:23.465Z</time>
    </trkpt>
    <trkpt lat="43.166356" lon="-2.662221">
        <ele>154.3</ele>
        <time>2023-02-22T13:04:30.142Z</time>
    </trkpt>
    <trkpt lat="43.1664" lon="-2.66219">
        <ele>154.5</ele>
        <time>2023-02-22T13:04:33.723Z</time>
    </trkpt>
    <trkpt lat="43.16643" lon="-2.66213">
        <ele>154.3</ele>
        <time>2023-02-22T13:04:37.824Z</time>
    </trkpt>
    <trkpt lat="43.16651" lon="-2.66197">
        <ele>153.9</ele>
        <time>2023-02-22T13:04:48.761Z</time>
    </trkpt>
    <trkpt lat="43.16665" lon="-2.66177">
        <ele>153.9</ele>
        <time>2023-02-22T13:05:05.231Z</time>
    </trkpt>
    <trkpt lat="43.16673" lon="-2.66171">
        <ele>153.9</ele>
        <time>2023-02-22T13:05:12.686Z</time>
    </trkpt>
    <trkpt lat="43.1668" lon="-2.66168">
        <ele>154.0</ele>
        <time>2023-02-22T13:05:19.012Z</time>
    </trkpt>
    <trkpt lat="43.16687" lon="-2.66157">
        <ele>152.9</ele>
        <time>2023-02-22T13:05:28.527Z</time>
    </trkpt>
    <trkpt lat="43.16696" lon="-2.66147">
        <ele>151.7</ele>
        <time>2023-02-22T13:05:38.606Z</time>
    </trkpt>
    <trkpt lat="43.16721" lon="-2.66128">
        <ele>149.2</ele>
        <time>2023-02-22T13:06:02.813Z</time>
    </trkpt>
    <trkpt lat="43.16722" lon="-2.66128">
        <ele>149.2</ele>
        <time>2023-02-22T13:06:03.702Z</time>
    </trkpt>
    <trkpt lat="43.16746" lon="-2.66108">
        <ele>148.0</ele>
        <time>2023-02-22T13:06:28.944Z</time>
    </trkpt>
    <trkpt lat="43.16768" lon="-2.6609">
        <ele>146.7</ele>
        <time>2023-02-22T13:06:51.710Z</time>
    </trkpt>
    <trkpt lat="43.16784" lon="-2.6608">
        <ele>146.3</ele>
        <time>2023-02-22T13:07:07.514Z</time>
    </trkpt>
    <trkpt lat="43.16792" lon="-2.6608">
        <ele>146.8</ele>
        <time>2023-02-22T13:07:15.023Z</time>
    </trkpt>
    <trkpt lat="43.16822" lon="-2.66077">
        <ele>148.6</ele>
        <time>2023-02-22T13:07:43.650Z</time>
    </trkpt>
    <trkpt lat="43.16834" lon="-2.66076">
        <ele>149.8</ele>
        <time>2023-02-22T13:07:55.496Z</time>
    </trkpt>
    <trkpt lat="43.16844" lon="-2.66074">
        <ele>149.9</ele>
        <time>2023-02-22T13:08:05.785Z</time>
    </trkpt>
    <trkpt lat="43.16849" lon="-2.6607">
        <ele>149.6</ele>
        <time>2023-02-22T13:08:10.867Z</time>
    </trkpt>
    <trkpt lat="43.16854" lon="-2.66064">
        <ele>149.0</ele>
        <time>2023-02-22T13:08:16.248Z</time>
    </trkpt>
    <trkpt lat="43.16859" lon="-2.66057">
        <ele>148.5</ele>
        <time>2023-02-22T13:08:22.353Z</time>
    </trkpt>
    <trkpt lat="43.16862" lon="-2.66047">
        <ele>147.7</ele>
        <time>2023-02-22T13:08:29.430Z</time>
    </trkpt>
    <trkpt lat="43.16865" lon="-2.66031">
        <ele>146.4</ele>
        <time>2023-02-22T13:08:38.384Z</time>
    </trkpt>
    <trkpt lat="43.16868" lon="-2.66014">
        <ele>145.3</ele>
        <time>2023-02-22T13:08:47.787Z</time>
    </trkpt>
    <trkpt lat="43.16869" lon="-2.66007">
        <ele>144.8</ele>
        <time>2023-02-22T13:08:51.468Z</time>
    </trkpt>
    <trkpt lat="43.16877" lon="-2.65959">
        <ele>140.2</ele>
        <time>2023-02-22T13:09:17.065Z</time>
    </trkpt>
    <trkpt lat="43.16878" lon="-2.65951">
        <ele>139.4</ele>
        <time>2023-02-22T13:09:21.058Z</time>
    </trkpt>
    <trkpt lat="43.16883" lon="-2.65923">
        <ele>137.0</ele>
        <time>2023-02-22T13:09:34.597Z</time>
    </trkpt>
    <trkpt lat="43.16886" lon="-2.65915">
        <ele>136.8</ele>
        <time>2023-02-22T13:09:39.114Z</time>
    </trkpt>
    <trkpt lat="43.16888" lon="-2.65913">
        <ele>136.9</ele>
        <time>2023-02-22T13:09:40.941Z</time>
    </trkpt>
    <trkpt lat="43.16891" lon="-2.65906">
        <ele>136.8</ele>
        <time>2023-02-22T13:09:45.025Z</time>
    </trkpt>
    <trkpt lat="43.16901" lon="-2.65896">
        <ele>137.5</ele>
        <time>2023-02-22T13:09:53.761Z</time>
    </trkpt>
    <trkpt lat="43.16914" lon="-2.6588">
        <ele>137.4</ele>
        <time>2023-02-22T13:10:06.500Z</time>
    </trkpt>
    <trkpt lat="43.16926" lon="-2.65867">
        <ele>137.7</ele>
        <time>2023-02-22T13:10:18.313Z</time>
    </trkpt>
    <trkpt lat="43.16942" lon="-2.65849">
        <ele>138.3</ele>
        <time>2023-02-22T13:10:34.784Z</time>
    </trkpt>
    <trkpt lat="43.16952" lon="-2.65839">
        <ele>138.6</ele>
        <time>2023-02-22T13:10:45.206Z</time>
    </trkpt>
    <trkpt lat="43.16984" lon="-2.65802">
        <ele>136.4</ele>
        <time>2023-02-22T13:11:19.832Z</time>
    </trkpt>
    <trkpt lat="43.17002" lon="-2.65781">
        <ele>135.8</ele>
        <time>2023-02-22T13:11:38.946Z</time>
    </trkpt>
    <trkpt lat="43.1704" lon="-2.65737">
        <ele>130.0</ele>
        <time>2023-02-22T13:12:19.534Z</time>
    </trkpt>
    <trkpt lat="43.17053" lon="-2.65723">
        <ele>129.1</ele>
        <time>2023-02-22T13:12:31.859Z</time>
    </trkpt>
    <trkpt lat="43.17069" lon="-2.65704">
        <ele>128.7</ele>
        <time>2023-02-22T13:12:46.938Z</time>
    </trkpt>
    <trkpt lat="43.17115" lon="-2.6565">
        <ele>123.1</ele>
        <time>2023-02-22T13:13:28.134Z</time>
    </trkpt>
    <trkpt lat="43.17122" lon="-2.65643">
        <ele>121.6</ele>
        <time>2023-02-22T13:13:33.426Z</time>
    </trkpt>
    <trkpt lat="43.17129" lon="-2.65635">
        <ele>120.5</ele>
        <time>2023-02-22T13:13:39.368Z</time>
    </trkpt>
    <trkpt lat="43.17136" lon="-2.65629">
        <ele>119.4</ele>
        <time>2023-02-22T13:13:45.168Z</time>
    </trkpt>
    <trkpt lat="43.17147" lon="-2.65621">
        <ele>117.9</ele>
        <time>2023-02-22T13:13:53.809Z</time>
    </trkpt>
    <trkpt lat="43.17152" lon="-2.65616">
        <ele>117.3</ele>
        <time>2023-02-22T13:13:58.450Z</time>
    </trkpt>
    <trkpt lat="43.17164" lon="-2.65606">
        <ele>116.1</ele>
        <time>2023-02-22T13:14:09.659Z</time>
    </trkpt>
    <trkpt lat="43.17183" lon="-2.65591">
        <ele>117.0</ele>
        <time>2023-02-22T13:14:28.084Z</time>
    </trkpt>
    <trkpt lat="43.17198" lon="-2.65578">
        <ele>118.0</ele>
        <time>2023-02-22T13:14:43.529Z</time>
    </trkpt>
    <trkpt lat="43.172" lon="-2.65577">
        <ele>118.2</ele>
        <time>2023-02-22T13:14:45.200Z</time>
    </trkpt>
    <trkpt lat="43.17216" lon="-2.65564">
        <ele>119.9</ele>
        <time>2023-02-22T13:15:00.422Z</time>
    </trkpt>
    <trkpt lat="43.17227" lon="-2.65553">
        <ele>120.1</ele>
        <time>2023-02-22T13:15:12.190Z</time>
    </trkpt>
    <trkpt lat="43.17228" lon="-2.65551">
        <ele>119.9</ele>
        <time>2023-02-22T13:15:13.793Z</time>
    </trkpt>
    <trkpt lat="43.1724" lon="-2.65538">
        <ele>119.6</ele>
        <time>2023-02-22T13:15:28.354Z</time>
    </trkpt>
    <trkpt lat="43.17242" lon="-2.65535">
        <ele>119.5</ele>
        <time>2023-02-22T13:15:31.281Z</time>
    </trkpt>
    <trkpt lat="43.17254" lon="-2.6552">
        <ele>118.0</ele>
        <time>2023-02-22T13:15:47.930Z</time>
    </trkpt>
    <trkpt lat="43.17255" lon="-2.65519">
        <ele>117.8</ele>
        <time>2023-02-22T13:15:49.234Z</time>
    </trkpt>
    <trkpt lat="43.17274" lon="-2.65492">
        <ele>117.2</ele>
        <time>2023-02-22T13:16:19.200Z</time>
    </trkpt>
    <trkpt lat="43.17289" lon="-2.65467">
        <ele>119.3</ele>
        <time>2023-02-22T13:16:45.570Z</time>
    </trkpt>
    <trkpt lat="43.17315" lon="-2.65434">
        <ele>122.1</ele>
        <time>2023-02-22T13:17:25.451Z</time>
    </trkpt>
    <trkpt lat="43.1733" lon="-2.65413">
        <ele>121.5</ele>
        <time>2023-02-22T13:17:50.166Z</time>
    </trkpt>
    <trkpt lat="43.17336" lon="-2.65405">
        <ele>121.5</ele>
        <time>2023-02-22T13:17:58.913Z</time>
    </trkpt>
    <trkpt lat="43.17344" lon="-2.65397">
        <ele>121.2</ele>
        <time>2023-02-22T13:18:09.693Z</time>
    </trkpt>
    <trkpt lat="43.1736" lon="-2.65379">
        <ele>119.5</ele>
        <time>2023-02-22T13:18:32.687Z</time>
    </trkpt>
    <trkpt lat="43.17378" lon="-2.65363">
        <ele>117.7</ele>
        <time>2023-02-22T13:18:54.433Z</time>
    </trkpt>
    <trkpt lat="43.17407" lon="-2.65335">
        <ele>115.6</ele>
        <time>2023-02-22T13:19:23.430Z</time>
    </trkpt>
    <trkpt lat="43.17446" lon="-2.65295">
        <ele>109.6</ele>
        <time>2023-02-22T13:19:59.770Z</time>
    </trkpt>
    <trkpt lat="43.17449" lon="-2.65286">
        <ele>109.0</ele>
        <time>2023-02-22T13:20:04.462Z</time>
    </trkpt>
    <trkpt lat="43.17451" lon="-2.65276">
        <ele>108.8</ele>
        <time>2023-02-22T13:20:09.619Z</time>
    </trkpt>
    <trkpt lat="43.17452" lon="-2.65265">
        <ele>109.0</ele>
        <time>2023-02-22T13:20:15.218Z</time>
    </trkpt>
    <trkpt lat="43.17453" lon="-2.65245">
        <ele>109.1</ele>
        <time>2023-02-22T13:20:26.073Z</time>
    </trkpt>
    <trkpt lat="43.17453" lon="-2.65195">
        <ele>107.4</ele>
        <time>2023-02-22T13:20:54.458Z</time>
    </trkpt>
    <trkpt lat="43.17453" lon="-2.6519">
        <ele>107.2</ele>
        <time>2023-02-22T13:20:57.467Z</time>
    </trkpt>
    <trkpt lat="43.17452" lon="-2.65179">
        <ele>106.8</ele>
        <time>2023-02-22T13:21:04.500Z</time>
    </trkpt>
    <trkpt lat="43.17452" lon="-2.65172">
        <ele>106.4</ele>
        <time>2023-02-22T13:21:09.155Z</time>
    </trkpt>
    <trkpt lat="43.17451" lon="-2.65167">
        <ele>106.3</ele>
        <time>2023-02-22T13:21:12.515Z</time>
    </trkpt>
    <trkpt lat="43.1745" lon="-2.6516">
        <ele>106.1</ele>
        <time>2023-02-22T13:21:17.166Z</time>
    </trkpt>
    <trkpt lat="43.17448" lon="-2.65152">
        <ele>105.8</ele>
        <time>2023-02-22T13:21:22.735Z</time>
    </trkpt>
    <trkpt lat="43.17445" lon="-2.65144">
        <ele>105.5</ele>
        <time>2023-02-22T13:21:28.918Z</time>
    </trkpt>
    <trkpt lat="43.17383" lon="-2.64993">
        <ele>107.7</ele>
        <time>2023-02-22T13:23:31.941Z</time>
    </trkpt>
    <trkpt lat="43.17343" lon="-2.64894">
        <ele>104.9</ele>
        <time>2023-02-22T13:24:52.203Z</time>
    </trkpt>
    <trkpt lat="43.17335" lon="-2.64875">
        <ele>105.8</ele>
        <time>2023-02-22T13:25:07.245Z</time>
    </trkpt>
    <trkpt lat="43.17317" lon="-2.64834">
        <ele>103.6</ele>
        <time>2023-02-22T13:25:41.353Z</time>
    </trkpt>
    <trkpt lat="43.17309" lon="-2.64817">
        <ele>102.6</ele>
        <time>2023-02-22T13:25:56.267Z</time>
    </trkpt>
    <trkpt lat="43.17303" lon="-2.64807">
        <ele>102.4</ele>
        <time>2023-02-22T13:26:06.099Z</time>
    </trkpt>
    <trkpt lat="43.17295" lon="-2.64796">
        <ele>102.1</ele>
        <time>2023-02-22T13:26:18.203Z</time>
    </trkpt>
    <trkpt lat="43.17284" lon="-2.64782">
        <ele>102.7</ele>
        <time>2023-02-22T13:26:34.367Z</time>
    </trkpt>
    <trkpt lat="43.17265" lon="-2.64761">
        <ele>104.2</ele>
        <time>2023-02-22T13:27:00.721Z</time>
    </trkpt>
    <trkpt lat="43.172651" lon="-2.647608">
        <ele>104.2</ele>
        <time>2023-02-22T13:27:00.915Z</time>
    </trkpt>
    <trkpt lat="43.17168" lon="-2.64648">
        <ele>108.6</ele>
        <time>2023-02-22T13:29:29.408Z</time>
    </trkpt>
    <trkpt lat="43.17109" lon="-2.64582">
        <ele>110.0</ele>
        <time>2023-02-22T13:30:59.782Z</time>
    </trkpt>
    <trkpt lat="43.17087" lon="-2.64555">
        <ele>109.9</ele>
        <time>2023-02-22T13:31:35.466Z</time>
    </trkpt>
    <trkpt lat="43.17055" lon="-2.64516">
        <ele>111.6</ele>
        <time>2023-02-22T13:32:26.153Z</time>
    </trkpt>
    <trkpt lat="43.17049" lon="-2.64509">
        <ele>111.7</ele>
        <time>2023-02-22T13:32:35.558Z</time>
    </trkpt>
    <trkpt lat="43.17045" lon="-2.64504">
        <ele>111.6</ele>
        <time>2023-02-22T13:32:42.067Z</time>
    </trkpt>
    <trkpt lat="43.17041" lon="-2.64498">
        <ele>111.6</ele>
        <time>2023-02-22T13:32:49.184Z</time>
    </trkpt>
    <trkpt lat="43.1704" lon="-2.64498">
        <ele>111.6</ele>
        <time>2023-02-22T13:32:50.391Z</time>
    </trkpt>
    <trkpt lat="43.17024" lon="-2.64479">
        <ele>111.3</ele>
        <time>2023-02-22T13:33:16.082Z</time>
    </trkpt>
    <trkpt lat="43.170242" lon="-2.644786">
        <ele>111.4</ele>
        <time>2023-02-22T13:33:16.512Z</time>
    </trkpt>
    <trkpt lat="43.17016" lon="-2.64465">
        <ele>110.9</ele>
        <time>2023-02-22T13:33:32.288Z</time>
    </trkpt>
    <trkpt lat="43.17013" lon="-2.64458">
        <ele>110.6</ele>
        <time>2023-02-22T13:33:39.572Z</time>
    </trkpt>
    <trkpt lat="43.17011" lon="-2.64453">
        <ele>110.4</ele>
        <time>2023-02-22T13:33:44.702Z</time>
    </trkpt>
    <trkpt lat="43.17009" lon="-2.64445">
        <ele>110.2</ele>
        <time>2023-02-22T13:33:52.513Z</time>
    </trkpt>
    <trkpt lat="43.170047" lon="-2.644368">
        <ele>110.0</ele>
        <time>2023-02-22T13:34:01.842Z</time>
    </trkpt>
    <trkpt lat="43.170002" lon="-2.644383">
        <ele>109.7</ele>
        <time>2023-02-22T13:34:07.729Z</time>
    </trkpt>
    <trkpt lat="43.16996" lon="-2.644441">
        <ele>109.6</ele>
        <time>2023-02-22T13:34:15.291Z</time>
    </trkpt>
    <trkpt lat="43.169903" lon="-2.644542">
        <ele>109.3</ele>
        <time>2023-02-22T13:34:27.088Z</time>
    </trkpt>
    <trkpt lat="43.169838" lon="-2.644668">
        <ele>109.2</ele>
        <time>2023-02-22T13:34:41.323Z</time>
    </trkpt>
    <trkpt lat="43.169786" lon="-2.644767">
        <ele>109.2</ele>
        <time>2023-02-22T13:34:52.562Z</time>
    </trkpt>
    <trkpt lat="43.169713" lon="-2.644803">
        <ele>109.4</ele>
        <time>2023-02-22T13:35:02.351Z</time>
    </trkpt>
    <trkpt lat="43.169561" lon="-2.644704">
        <ele>109.3</ele>
        <time>2023-02-22T13:35:23.567Z</time>
    </trkpt>
    <trkpt lat="43.16943" lon="-2.64462">
        <ele>110.1</ele>
        <time>2023-02-22T13:35:41.794Z</time>
    </trkpt>
    <trkpt lat="43.169322" lon="-2.644549">
        <ele>110.8</ele>
        <time>2023-02-22T13:35:56.912Z</time>
    </trkpt>
    <trkpt lat="43.169286" lon="-2.644502">
        <ele>111.2</ele>
        <time>2023-02-22T13:36:03.302Z</time>
    </trkpt>
    <trkpt lat="43.169215" lon="-2.644379">
        <ele>112.1</ele>
        <time>2023-02-22T13:36:17.971Z</time>
    </trkpt>
    <trkpt lat="43.169207" lon="-2.644233">
        <ele>112.4</ele>
        <time>2023-02-22T13:36:31.661Z</time>
    </trkpt>
    <trkpt lat="43.169258" lon="-2.644015">
        <ele>112.2</ele>
        <time>2023-02-22T13:36:53.006Z</time>
    </trkpt>
    <trkpt lat="43.169279" lon="-2.643883">
        <ele>112.2</ele>
        <time>2023-02-22T13:37:05.575Z</time>
    </trkpt>
    <trkpt lat="43.169246" lon="-2.643788">
        <ele>112.6</ele>
        <time>2023-02-22T13:37:15.362Z</time>
    </trkpt>
    <trkpt lat="43.169152" lon="-2.643683">
        <ele>113.3</ele>
        <time>2023-02-22T13:37:31.665Z</time>
    </trkpt>
    <trkpt lat="43.169076" lon="-2.643605">
        <ele>113.8</ele>
        <time>2023-02-22T13:37:44.411Z</time>
    </trkpt>
    <trkpt lat="43.168947" lon="-2.643503">
        <ele>114.4</ele>
        <time>2023-02-22T13:38:04.253Z</time>
    </trkpt>
    <trkpt lat="43.168894" lon="-2.643405">
        <ele>114.5</ele>
        <time>2023-02-22T13:38:16.057Z</time>
    </trkpt>
    <trkpt lat="43.168919" lon="-2.643197">
        <ele>113.9</ele>
        <time>2023-02-22T13:38:36.117Z</time>
    </trkpt>
    <trkpt lat="43.168971" lon="-2.642991">
        <ele>112.9</ele>
        <time>2023-02-22T13:38:56.738Z</time>
    </trkpt>
    <trkpt lat="43.168862" lon="-2.642724">
        <ele>111.6</ele>
        <time>2023-02-22T13:39:25.174Z</time>
    </trkpt>
    <trkpt lat="43.16884" lon="-2.642528">
        <ele>110.7</ele>
        <time>2023-02-22T13:39:43.538Z</time>
    </trkpt>
    <trkpt lat="43.168808" lon="-2.642163">
        <ele>109.6</ele>
        <time>2023-02-22T13:40:15.175Z</time>
    </trkpt>
    <trkpt lat="43.168754" lon="-2.641766">
        <ele>109.7</ele>
        <time>2023-02-22T13:40:46.713Z</time>
    </trkpt>
    </trkseg>
</trk>
</gpx>